M I D A S
Marine Information and Data Acquisition System
Tripno 1341 of the Zeeleeuw from 2007-04-04 06:48:28 to 2007-04-04 10:23:54
Back to CruiseResearch ActivitiesStationsMapUnderway DataData graphs

EquipmentUnitsComment
TimeDGPSUTC
LatitudeDGPSDM.mWGS84
LongitudeDGPSDM.mWGS84
TemperatureSBE03/SBE38deg celciusITS90
ConductivitySBE21S/mITS90
SalinitySBE21 Practical Salinity Units
ChlorophylAChelsea fluorimeterg/lCalibrated in Aceton
Missing or incorrect values are displayed as -999
Sea surface data collected by the RV Zeeleeuw from 2007-04-04 06:29:56 to 2007-04-04 15:23:51
                                                                                    Next 1000 lines
Time Latitude Longitude Temperature Conductivity Salinity ChlorophylA
2007-04-04 06:30:06 51°13.602 2°56.096 16.1192 0.062826 0.357636 -2.871232
2007-04-04 06:30:10 51°13.603 2°56.094 16.1173 0.062826 0.357628 -2.871232
2007-04-04 06:30:16 51°13.603 2°56.091 16.1042 0.062826 0.357628 -2.871232
2007-04-04 06:30:21 51°13.604 2°56.087 16.1481 0.062826 0.357628 -2.871232
2007-04-04 06:30:26 51°13.605 2°56.083 16.2486 0.062826 0.357628 -2.871232
2007-04-04 06:30:30 51°13.607 2°56.079 16.1561 0.062826 0.357628 -2.871232
2007-04-04 06:30:35 51°13.608 2°56.073 16.1893 0.062826 0.357628 -2.871232
2007-04-04 06:30:40 51°13.61 2°56.066 16.2122 0.062826 0.357621 -2.871232
2007-04-04 06:30:46 51°13.612 2°56.058 16.2545 0.062826 0.357621 -2.871232
2007-04-04 06:30:51 51°13.615 2°56.051 16.2232 0.062826 0.357628 -2.871232
2007-04-04 06:30:55 51°13.617 2°56.044 16.236 0.062826 0.357621 -2.871232
2007-04-04 06:31:00 51°13.619 2°56.036 16.2412 0.062826 0.357621 -2.871232
2007-04-04 06:31:06 51°13.622 2°56.026 16.2774 0.062826 0.357621 -2.871232
2007-04-04 06:31:11 51°13.624 2°56.017 16.2641 0.062826 0.357621 -2.871232
2007-04-04 06:31:15 51°13.626 2°56.01 16.2628 0.062826 0.357613 -2.871232
2007-04-04 06:31:20 51°13.628 2°56.001 16.2621 0.062826 0.357613 -2.871232
2007-04-04 06:31:25 51°13.631 2°55.991 16.278 0.062826 0.357606 -2.871232
2007-04-04 06:31:31 51°13.633 2°55.98 16.2753 0.062826 0.357606 -2.871232
2007-04-04 06:31:36 51°13.636 2°55.97 16.288 0.062826 0.357606 -2.871232
2007-04-04 06:31:40 51°13.638 2°55.962 16.2754 0.062826 0.357599 -2.871232
2007-04-04 06:31:45 51°13.64 2°55.951 16.3091 0.062826 0.357591 -2.871232
2007-04-04 06:31:50 51°13.643 2°55.941 16.3076 0.062826 0.357591 -2.871232
2007-04-04 06:31:56 51°13.647 2°55.929 16.3013 0.062826 0.357591 -2.871232
2007-04-04 06:32:00 51°13.649 2°55.922 16.2993 0.062826 0.357591 -2.871232
2007-04-04 06:32:05 51°13.652 2°55.912 16.3081 0.062826 0.357591 -2.871232
2007-04-04 06:32:10 51°13.656 2°55.903 16.2822 0.062826 0.357599 -2.871232
2007-04-04 06:32:16 51°13.659 2°55.892 16.2903 0.062826 0.357599 -2.871232
2007-04-04 06:32:21 51°13.662 2°55.882 16.2955 0.062826 0.357599 -2.871232
2007-04-04 06:32:25 51°13.665 2°55.875 16.3056 0.062826 0.357599 -2.871232
2007-04-04 06:32:30 51°13.669 2°55.865 16.3034 0.062826 0.357591 -2.871232
2007-04-04 06:32:36 51°13.672 2°55.854 16.3005 0.062826 0.357591 -2.871232
2007-04-04 06:32:41 51°13.676 2°55.846 16.301 0.062826 0.357591 -2.871232
2007-04-04 06:32:46 51°13.678 2°55.837 16.3028 0.062826 0.357584 -2.871232
2007-04-04 06:32:50 51°13.681 2°55.831 14.8288 0.062929 0.358188 -2.871232
2007-04-04 06:32:55 51°13.683 2°55.823 13.7436 0.095553 0.552443 -2.871232
2007-04-04 06:33:00 51°13.686 2°55.815 12.6458 0.410515 2.508491 -2.871232
2007-04-04 06:33:05 51°13.689 2°55.808 11.6373 0.410515 2.508491 -2.871232
2007-04-04 06:33:10 51°13.691 2°55.8 10.7867 1.305782 8.132222 -2.871232
2007-04-04 06:33:15 51°13.693 2°55.793 10.7324 2.283234 14.599761 -2.871232
2007-04-04 06:33:20 51°13.695 2°55.786 10.4055 3.302556 23.359779 -2.871232
2007-04-04 06:33:25 51°13.697 2°55.779 10.1655 3.206939 23.663662 -2.871232
2007-04-04 06:33:30 51°13.699 2°55.772 10.0677 3.236965 24.603626 -2.871232
2007-04-04 06:33:35 51°13.701 2°55.765 9.9457 3.236965 24.603626 -2.871232
2007-04-04 06:33:40 51°13.702 2°55.758 9.9182 3.195893 25.218607 -2.871232
2007-04-04 06:33:45 51°13.704 2°55.751 9.8243 3.117155 25.285223 -2.871232
2007-04-04 06:33:50 51°13.705 2°55.745 9.8152 3.02301 24.802305 -2.871232
2007-04-04 06:33:55 51°13.706 2°55.738 9.7431 2.964879 24.644097 -2.871232
2007-04-04 06:34:00 51°13.707 2°55.733 9.7067 2.939955 24.662668 -2.871232
2007-04-04 06:34:05 51°13.708 2°55.728 9.684 2.939955 24.662668 -2.871232
2007-04-04 06:34:10 51°13.709 2°55.722 9.6267 2.91441 24.573759 -2.871232
2007-04-04 06:34:15 51°13.71 2°55.718 9.5759 2.900759 24.559521 -2.871232
2007-04-04 06:34:20 51°13.711 2°55.715 9.5665 2.882041 24.45778 -2.871232
2007-04-04 06:34:25 51°13.711 2°55.713 9.5508 2.869425 24.40777 -2.871232
2007-04-04 06:34:30 51°13.711 2°55.711 9.5118 2.866116 24.443726 -2.871232
2007-04-04 06:34:36 51°13.711 2°55.71 9.5088 2.866116 24.443726 -2.871232
2007-04-04 06:34:40 51°13.711 2°55.71 9.556 2.843366 24.276861 -2.871232
2007-04-04 06:34:45 51°13.712 2°55.71 9.5081 2.854949 24.429158 -2.871232
2007-04-04 06:34:50 51°13.712 2°55.71 9.4757 2.862705 24.542755 -2.871232
2007-04-04 06:34:55 51°13.712 2°55.712 9.4497 2.865291 24.595752 -2.871232
2007-04-04 06:35:00 51°13.712 2°55.713 9.4637 2.863223 24.601 -2.871232
2007-04-04 06:35:05 51°13.713 2°55.715 9.4761 2.863223 24.601 -2.871232
2007-04-04 06:35:10 51°13.713 2°55.718 9.4356 2.857535 24.566886 -2.871232
2007-04-04 06:35:15 51°13.714 2°55.72 9.4346 2.840162 24.411923 -2.871232
2007-04-04 06:35:20 51°13.715 2°55.722 9.4322 2.847608 24.504635 -2.871232
2007-04-04 06:35:25 51°13.716 2°55.724 9.4389 2.846264 24.514149 -2.871232
2007-04-04 06:35:30 51°13.716 2°55.725 9.4476 2.836854 24.435057 -2.871232
2007-04-04 06:35:35 51°13.716 2°55.725 9.4029 2.836854 24.435057 -2.871232
2007-04-04 06:35:40 51°13.716 2°55.725 9.3895 2.837681 24.45116 -2.871232
2007-04-04 06:35:45 51°13.715 2°55.725 9.3817 2.83551 24.445164 -2.871232
2007-04-04 06:35:50 51°13.714 2°55.723 9.3984 2.833752 24.436099 -2.871232
2007-04-04 06:35:55 51°13.713 2°55.721 9.3587 2.821963 24.330517 -2.871232
2007-04-04 06:36:00 51°13.712 2°55.719 9.3568 2.827858 24.391554 -2.871232
2007-04-04 06:36:05 51°13.71 2°55.717 9.3603 2.827858 24.391554 -2.871232
2007-04-04 06:36:11 51°13.709 2°55.714 9.3275 2.822791 24.354843 -2.871232
2007-04-04 06:36:16 51°13.708 2°55.712 9.3326 2.818241 24.322389 -2.871232
2007-04-04 06:36:20 51°13.707 2°55.711 9.3301 2.815863 24.308021 -2.871232
2007-04-04 06:36:25 51°13.707 2°55.71 9.3056 2.8109 24.270339 -2.871232
2007-04-04 06:36:30 51°13.707 2°55.71 9.2875 2.817001 24.342298 -2.871232
2007-04-04 06:36:36 51°13.709 2°55.711 9.2741 2.817001 24.342298 -2.871232
2007-04-04 06:36:40 51°13.711 2°55.713 9.2664 2.800766 24.19674 -2.871232
2007-04-04 06:36:45 51°13.714 2°55.714 9.2805 2.812555 24.318392 -2.871232
2007-04-04 06:36:50 51°13.717 2°55.715 9.2629 2.839027 24.578883 -2.871232
2007-04-04 06:36:55 51°13.721 2°55.715 9.2495 2.839441 24.593744 -2.871232
2007-04-04 06:37:00 51°13.725 2°55.715 9.2507 2.847094 24.676422 -2.871232
2007-04-04 06:37:05 51°13.729 2°55.713 9.2314 2.847094 24.676422 -2.871232
2007-04-04 06:37:10 51°13.733 2°55.712 9.2397 2.851023 24.726217 -2.871232
2007-04-04 06:37:15 51°13.737 2°55.709 9.2348 2.848748 24.712886 -2.871232
2007-04-04 06:37:20 51°13.742 2°55.706 9.2289 2.855781 24.784626 -2.871232
2007-04-04 06:37:25 51°13.746 2°55.703 9.2229 2.848955 24.727799 -2.871232
2007-04-04 06:37:30 51°13.752 2°55.699 9.2347 2.847715 24.723054 -2.871232
2007-04-04 06:37:35 51°13.757 2°55.694 9.2313 2.847715 24.723054 -2.871232
2007-04-04 06:37:40 51°13.763 2°55.69 9.2275 2.838408 24.641821 -2.871232
2007-04-04 06:37:45 51°13.77 2°55.686 9.2256 2.82786 24.5455 -2.871232
2007-04-04 06:37:50 51°13.776 2°55.681 9.2289 2.822896 24.503199 -2.871232
2007-04-04 06:37:55 51°13.783 2°55.675 9.2328 2.818967 24.470134 -2.871232
2007-04-04 06:38:00 51°13.791 2°55.669 9.213 2.815555 24.437523 -2.871232
2007-04-04 06:38:05 51°13.798 2°55.664 9.2423 2.815555 24.437523 -2.871232
2007-04-04 06:38:10 51°13.806 2°55.657 9.2176 2.814004 24.424621 -2.871232
2007-04-04 06:38:15 51°13.815 2°55.651 9.221 2.814314 24.428866 -2.871232
2007-04-04 06:38:20 51°13.824 2°55.644 9.2225 2.809971 24.389922 -2.871232
2007-04-04 06:38:25 51°13.833 2°55.638 9.1977 2.801388 24.310475 -2.871232
2007-04-04 06:38:30 51°13.842 2°55.631 9.2058 2.797769 24.277814 -2.871232
2007-04-04 06:38:35 51°13.851 2°55.624 9.1889 2.797769 24.277814 -2.871232
2007-04-04 06:38:40 51°13.861 2°55.617 9.2136 2.789497 24.196912 -2.871232
2007-04-04 06:38:45 51°13.87 2°55.61 9.1909 2.740385 23.732913 -2.871232
2007-04-04 06:38:50 51°13.88 2°55.603 9.1774 2.799837 24.300754 -2.871232
2007-04-04 06:38:55 51°13.89 2°55.596 9.1679 2.805731 24.364101 -2.871232
2007-04-04 06:39:00 51°13.9 2°55.588 9.1675 2.812039 24.428894 -2.871232
2007-04-04 06:39:05 51°13.91 2°55.58 9.1642 2.812039 24.428894 -2.871232
2007-04-04 06:39:10 51°13.92 2°55.572 9.1463 2.818761 24.496402 -2.871232
2007-04-04 06:39:15 51°13.93 2°55.565 9.1541 2.826516 24.574494 -2.871232
2007-04-04 06:39:20 51°13.94 2°55.557 9.1602 2.836754 24.679004 -2.871232
2007-04-04 06:39:25 51°13.95 2°55.55 9.1562 2.846681 24.779344 -2.871232
2007-04-04 06:39:30 51°13.961 2°55.542 9.1471 2.856816 24.88241 -2.871232
2007-04-04 06:39:35 51°13.971 2°55.535 9.167 2.856816 24.88241 -2.871232
2007-04-04 06:39:40 51°13.981 2°55.527 9.1468 2.863124 24.95015 -2.871232
2007-04-04 06:39:45 51°13.992 2°55.52 9.1613 2.867261 24.993805 -2.871232
2007-04-04 06:39:50 51°14.002 2°55.513 9.16 2.868916 25.011668 -2.871232
2007-04-04 06:39:55 51°14.012 2°55.506 9.1578 2.866848 24.991803 -2.871232
2007-04-04 06:40:00 51°14.023 2°55.498 9.1314 2.869123 25.015626 -2.871232
2007-04-04 06:40:05 51°14.033 2°55.491 9.1212 2.869123 25.015626 -2.871232
2007-04-04 06:40:10 51°14.044 2°55.483 9.1288 2.870467 25.027883 -2.871232
2007-04-04 06:40:15 51°14.054 2°55.476 9.1148 2.872329 25.04774 -2.871232
2007-04-04 06:40:20 51°14.065 2°55.468 9.1004 2.875845 25.080866 -2.871232
2007-04-04 06:40:25 51°14.075 2°55.461 9.0875 2.879775 25.119292 -2.871232
2007-04-04 06:40:30 51°14.086 2°55.453 9.0924 2.88567 25.184561 -2.871232
2007-04-04 06:40:35 51°14.096 2°55.445 9.0968 2.88567 25.184561 -2.871232
2007-04-04 06:40:40 51°14.106 2°55.437 9.0761 2.88898 25.225013 -2.871232
2007-04-04 06:40:45 51°14.117 2°55.428 9.0837 2.891152 25.25056 -2.871232
2007-04-04 06:40:50 51°14.126 2°55.419 9.0852 2.895806 25.303345 -2.871232
2007-04-04 06:40:55 51°14.136 2°55.41 9.0746 2.898081 25.334591 -2.871232
2007-04-04 06:41:00 51°14.146 2°55.401 9.0566 2.899116 25.349895 -2.871232
2007-04-04 06:41:05 51°14.156 2°55.391 9.063 2.899116 25.349895 -2.871232
2007-04-04 06:41:10 51°14.165 2°55.381 9.0644 2.897978 25.344271 -2.871232
2007-04-04 06:41:15 51°14.175 2°55.371 9.0412 2.895599 25.325347 -2.871232
2007-04-04 06:41:20 51°14.184 2°55.36 9.0328 2.890428 25.276841 -2.871232
2007-04-04 06:41:25 51°14.193 2°55.349 9.069 2.883913 25.216054 -2.871232
2007-04-04 06:41:30 51°14.202 2°55.337 9.049 2.882361 25.209078 -2.871232
2007-04-04 06:41:35 51°14.211 2°55.325 9.0422 2.882361 25.209078 -2.871232
2007-04-04 06:41:40 51°14.22 2°55.313 9.0443 2.885257 25.242309 -2.871232
2007-04-04 06:41:45 51°14.229 2°55.301 9.0275 2.889911 25.292514 -2.871232
2007-04-04 06:41:50 51°14.238 2°55.288 9.03 2.894462 25.344426 -2.871232
2007-04-04 06:41:55 51°14.246 2°55.275 9.024 2.897772 25.375696 -2.871232
2007-04-04 06:42:00 51°14.254 2°55.262 9.0184 2.900771 25.404644 -2.871232
2007-04-04 06:42:05 51°14.262 2°55.248 9.0009 2.900771 25.404644 -2.871232
2007-04-04 06:42:10 51°14.27 2°55.234 8.9951 2.902115 25.422316 -2.871232
2007-04-04 06:42:15 51°14.278 2°55.22 8.9834 2.902633 25.429321 -2.871232
2007-04-04 06:42:20 51°14.287 2°55.205 8.9834 2.902219 25.430694 -2.871232
2007-04-04 06:42:25 51°14.295 2°55.19 8.9756 2.897255 25.386775 -2.871232
2007-04-04 06:42:30 51°14.304 2°55.175 8.974 2.893221 25.352511 -2.871232
2007-04-04 06:42:35 51°14.313 2°55.159 8.9693 2.893221 25.352511 -2.871232
2007-04-04 06:42:40 51°14.323 2°55.143 8.9495 2.891877 25.346219 -2.871232
2007-04-04 06:42:45 51°14.332 2°55.125 8.9461 2.894462 25.378565 -2.871232
2007-04-04 06:42:50 51°14.342 2°55.107 8.9505 2.901082 25.448585 -2.871232
2007-04-04 06:42:56 51°14.353 2°55.085 8.946 2.911942 25.559682 -2.871232
2007-04-04 06:43:00 51°14.361 2°55.07 8.9319 2.92094 25.649474 -2.871232
2007-04-04 06:43:05 51°14.371 2°55.05 8.9308 2.92094 25.649474 -2.871232
2007-04-04 06:43:10 51°14.381 2°55.029 8.9178 2.930766 25.754145 -2.871232
2007-04-04 06:43:15 51°14.391 2°55.01 8.947 2.939454 25.846541 -2.871232
2007-04-04 06:43:20 51°14.402 2°54.989 8.9356 2.946695 25.922924 -2.871232
2007-04-04 06:43:25 51°14.414 2°54.968 8.9113 2.953211 25.991652 -2.871232
2007-04-04 06:43:30 51°14.426 2°54.947 8.9183 2.956832 26.033684 -2.871232
2007-04-04 06:43:36 51°14.44 2°54.922 8.9272 2.956832 26.033684 -2.871232
2007-04-04 06:43:40 51°14.45 2°54.905 8.9075 2.95859 26.055589 -2.871232
2007-04-04 06:43:45 51°14.462 2°54.885 8.8771 2.959314 26.062622 -2.871232
2007-04-04 06:43:50 51°14.475 2°54.865 8.8501 2.959107 26.055783 -2.871232
2007-04-04 06:43:55 51°14.488 2°54.845 8.8048 2.959314 26.059172 -2.871232
2007-04-04 06:44:00 51°14.501 2°54.824 8.7608 2.960659 26.077064 -2.871232
2007-04-04 06:44:05 51°14.514 2°54.805 8.7448 2.960659 26.077064 -2.871232
2007-04-04 06:44:10 51°14.527 2°54.785 8.7299 2.9619 26.09396 -2.871232
2007-04-04 06:44:15 51°14.54 2°54.765 8.7125 2.966555 26.147505 -2.871232
2007-04-04 06:44:20 51°14.553 2°54.746 8.7118 2.978451 26.279202 -2.871232
2007-04-04 06:44:25 51°14.567 2°54.727 8.7122 3.001417 26.530281 -2.871232
2007-04-04 06:44:30 51°14.581 2°54.708 8.7083 3.03328 26.87483 -2.871232
2007-04-04 06:44:35 51°14.595 2°54.688 8.7296 3.03328 26.87483 -2.871232
2007-04-04 06:44:40 51°14.608 2°54.668 8.7232 3.060904 27.170455 -2.871232
2007-04-04 06:44:45 51°14.621 2°54.648 8.7363 3.092461 27.504161 -2.871232
2007-04-04 06:44:50 51°14.634 2°54.628 8.7449 3.117501 27.764378 -2.871232
2007-04-04 06:44:55 51°14.647 2°54.608 8.7613 3.136645 27.956583 -2.871232
2007-04-04 06:45:00 51°14.661 2°54.588 8.7517 3.157858 28.170926 -2.871232
2007-04-04 06:45:05 51°14.674 2°54.568 8.7563 3.157858 28.170926 -2.871232
2007-04-04 06:45:10 51°14.688 2°54.548 8.7794 3.172036 28.309291 -2.871232
2007-04-04 06:45:15 51°14.701 2°54.528 8.8026 3.186317 28.450275 -2.871232
2007-04-04 06:45:20 51°14.714 2°54.507 8.8039 3.194803 28.528768 -2.871232
2007-04-04 06:45:25 51°14.727 2°54.487 8.7908 3.200599 28.577638 -2.871232
2007-04-04 06:45:30 51°14.741 2°54.467 8.8147 3.206705 28.631849 -2.871232
2007-04-04 06:45:35 51°14.755 2°54.447 8.7903 3.206705 28.631849 -2.871232
2007-04-04 06:45:40 51°14.769 2°54.427 8.7951 3.212397 28.681966 -2.871232
2007-04-04 06:45:45 51°14.783 2°54.409 8.8015 3.214363 28.689925 -2.871232
2007-04-04 06:45:50 51°14.797 2°54.391 8.8001 3.21664 28.700944 -2.871232
2007-04-04 06:45:55 51°14.811 2°54.373 8.7876 3.221194 28.742843 -2.871232
2007-04-04 06:46:00 51°14.825 2°54.355 8.8035 3.223885 28.764817 -2.871232
2007-04-04 06:46:05 51°14.839 2°54.337 8.7968 3.223885 28.764817 -2.871232
2007-04-04 06:46:10 51°14.853 2°54.319 8.7966 3.2273 28.798538 -2.871232
2007-04-04 06:46:15 51°14.867 2°54.301 8.7942 3.229474 28.821534 -2.871232
2007-04-04 06:46:20 51°14.881 2°54.282 8.7988 3.230198 28.825619 -2.871232
2007-04-04 06:46:25 51°14.895 2°54.263 8.793 3.231958 28.84453 -2.871232
2007-04-04 06:46:30 51°14.908 2°54.245 8.7968 3.232993 28.856287 -2.871232
2007-04-04 06:46:35 51°14.922 2°54.226 8.7985 3.232993 28.856287 -2.871232
2007-04-04 06:46:40 51°14.935 2°54.206 8.7881 3.233614 28.862421 -2.871232
2007-04-04 06:46:45 51°14.948 2°54.188 8.7984 3.234649 28.87495 -2.871232
2007-04-04 06:46:50 51°14.961 2°54.169 8.7977 3.235477 28.883898 -2.871232
2007-04-04 06:46:55 51°14.974 2°54.15 8.8076 3.235891 28.887988 -2.871232
2007-04-04 06:47:00 51°14.987 2°54.132 8.7923 3.235788 28.886197 -2.871232
2007-04-04 06:47:05 51°15.002 2°54.115 8.8069 3.235788 28.886197 -2.871232
2007-04-04 06:47:10 51°15.016 2°54.1 8.8195 3.235995 28.889011 -2.871232
2007-04-04 06:47:15 51°15.031 2°54.085 8.8382 3.236512 28.894893 -2.871232
2007-04-04 06:47:20 51°15.046 2°54.071 8.8037 3.236616 28.893608 -2.871232
2007-04-04 06:47:25 51°15.061 2°54.057 8.8183 3.236823 28.893345 -2.871232
2007-04-04 06:47:30 51°15.076 2°54.043 8.8022 3.237547 28.900502 -2.871232
2007-04-04 06:47:35 51°15.091 2°54.028 8.8233 3.237547 28.900502 -2.871232
2007-04-04 06:47:40 51°15.106 2°54.014 8.8054 3.238065 28.904845 -2.871232
2007-04-04 06:47:45 51°15.121 2°53.999 8.8138 3.238064 28.896385 -2.871232
2007-04-04 06:47:50 51°15.136 2°53.985 8.8035 3.238478 28.895092 -2.871232
2007-04-04 06:47:56 51°15.154 2°53.969 8.807 3.239306 28.904037 -2.871232
2007-04-04 06:48:00 51°15.166 2°53.957 8.8058 3.239617 28.909411 -2.871232
2007-04-04 06:48:05 51°15.182 2°53.943 8.8067 3.239617 28.909411 -2.871232
2007-04-04 06:48:10 51°15.197 2°53.928 8.8084 3.239928 28.914016 -2.871232
2007-04-04 06:48:16 51°15.214 2°53.91 8.8022 3.240135 28.919138 -2.871232
2007-04-04 06:48:20 51°15.226 2°53.898 8.8015 3.240342 28.922722 -2.871232
2007-04-04 06:48:25 51°15.241 2°53.882 8.8044 3.240963 28.930396 -2.871232
2007-04-04 06:48:30 51°15.256 2°53.867 8.8067 3.241584 28.938841 -2.871232
2007-04-04 06:48:35 51°15.271 2°53.85 8.805 3.241584 28.938841 -2.871232
2007-04-04 06:48:40 51°15.286 2°53.836 8.8128 3.241791 28.940886 -2.871232
2007-04-04 06:48:45 51°15.301 2°53.82 8.8091 3.241791 28.939346 -2.871232
2007-04-04 06:48:50 51°15.316 2°53.805 8.8007 3.241998 28.941391 -2.871232
2007-04-04 06:48:55 51°15.332 2°53.79 8.8018 3.242101 28.944725 -2.871232
2007-04-04 06:49:00 51°15.347 2°53.775 8.8083 3.241894 28.941909 -2.871232
2007-04-04 06:49:05 51°15.363 2°53.76 8.8065 3.241894 28.941909 -2.871232
2007-04-04 06:49:10 51°15.378 2°53.745 8.8056 3.241998 28.942932 -2.871232
2007-04-04 06:49:15 51°15.394 2°53.73 8.8051 3.242101 28.942414 -2.871232
2007-04-04 06:49:20 51°15.409 2°53.714 8.8068 3.242308 28.945229 -2.871232
2007-04-04 06:49:25 51°15.425 2°53.699 8.807 3.242412 28.948563 -2.871232
2007-04-04 06:49:30 51°15.44 2°53.684 8.8186 3.242308 28.94677 -2.871232
2007-04-04 06:49:36 51°15.459 2°53.666 8.8103 3.242308 28.94677 -2.871232
2007-04-04 06:49:40 51°15.471 2°53.654 8.8103 3.242515 28.948045 -2.871232
2007-04-04 06:49:45 51°15.487 2°53.64 8.813 3.242722 28.950861 -2.871232
2007-04-04 06:49:50 51°15.503 2°53.626 8.8116 3.242826 28.951113 -2.871232
2007-04-04 06:49:55 51°15.519 2°53.612 8.8093 3.242929 28.952135 -2.871232
2007-04-04 06:50:00 51°15.534 2°53.598 8.8145 3.243033 28.950846 -2.871232
2007-04-04 06:50:05 51°15.55 2°53.584 8.8182 3.243033 28.950846 -2.871232
2007-04-04 06:50:10 51°15.567 2°53.57 8.8223 3.24355 28.955189 -2.871232
2007-04-04 06:50:16 51°15.586 2°53.554 8.8266 3.244068 28.960302 -2.871232
2007-04-04 06:50:20 51°15.599 2°53.543 8.8263 3.244482 28.964392 -2.871232
2007-04-04 06:50:25 51°15.615 2°53.53 8.8267 3.244999 28.969505 -2.871232
2007-04-04 06:50:30 51°15.631 2°53.516 8.8266 3.24562 28.974099 -2.871232
2007-04-04 06:50:35 51°15.647 2°53.502 8.8272 3.24562 28.974099 -2.871232
2007-04-04 06:50:40 51°15.663 2°53.489 8.8222 3.246138 28.976899 -2.871232
2007-04-04 06:50:45 51°15.679 2°53.474 8.8192 3.246655 28.979699 -2.871232
2007-04-04 06:50:50 51°15.695 2°53.46 8.8139 3.247276 28.981978 -2.871232
2007-04-04 06:50:55 51°15.711 2°53.446 8.8133 3.247897 28.987342 -2.871232
2007-04-04 06:51:00 51°15.727 2°53.431 8.8057 3.248518 28.992705 -2.871232
2007-04-04 06:51:05 51°15.743 2°53.418 8.8079 3.248518 28.992705 -2.871232
2007-04-04 06:51:10 51°15.759 2°53.403 8.8036 3.249036 28.998588 -2.871232
2007-04-04 06:51:15 51°15.775 2°53.389 8.8053 3.24976 29.008061 -2.871232
2007-04-04 06:51:20 51°15.79 2°53.375 8.8025 3.250278 29.016262 -2.871232
2007-04-04 06:51:25 51°15.806 2°53.36 8.8018 3.250485 29.019851 -2.871232
2007-04-04 06:51:30 51°15.822 2°53.346 8.8098 3.250692 29.025759 -2.871232
2007-04-04 06:51:35 51°15.838 2°53.331 8.8034 3.250692 29.025759 -2.871232
2007-04-04 06:51:40 51°15.854 2°53.317 8.8049 3.250796 29.029099 -2.871232
2007-04-04 06:51:45 51°15.871 2°53.303 8.8082 3.250796 29.031417 -2.871232
2007-04-04 06:51:50 51°15.887 2°53.29 8.8018 3.250899 29.034759 -2.871232
2007-04-04 06:51:55 51°15.903 2°53.277 8.7989 3.250899 29.035532 -2.871232
2007-04-04 06:52:00 51°15.919 2°53.264 8.7966 3.250796 29.032963 -2.871232
2007-04-04 06:52:05 51°15.935 2°53.252 8.7883 3.250796 29.032963 -2.871232
2007-04-04 06:52:10 51°15.952 2°53.241 8.7962 3.250899 29.033213 -2.871232
2007-04-04 06:52:15 51°15.968 2°53.229 8.7895 3.250692 29.030394 -2.871232
2007-04-04 06:52:20 51°15.984 2°53.218 8.7849 3.250485 29.029893 -2.871232
2007-04-04 06:52:25 51°16 2°53.207 8.786 3.249968 29.027096 -2.871232
2007-04-04 06:52:30 51°16.016 2°53.196 8.7798 3.249243 29.023024 -2.871232
2007-04-04 06:52:35 51°16.032 2°53.184 8.7825 3.249243 29.023024 -2.871232
2007-04-04 06:52:40 51°16.048 2°53.173 8.7801 3.248622 29.019975 -2.871232
2007-04-04 06:52:45 51°16.063 2°53.162 8.7793 3.248001 29.014608 -2.871232
2007-04-04 06:52:50 51°16.08 2°53.151 8.7756 3.24738 29.01233 -2.871232
2007-04-04 06:52:56 51°16.099 2°53.136 8.7816 3.246966 29.011327 -2.871232
2007-04-04 06:53:00 51°16.112 2°53.127 8.7791 3.246552 29.008778 -2.871232
2007-04-04 06:53:05 51°16.128 2°53.116 8.7837 3.246552 29.008778 -2.871232
2007-04-04 06:53:10 51°16.144 2°53.105 8.7815 3.246138 29.007002 -2.871232
2007-04-04 06:53:15 51°16.16 2°53.093 8.7835 3.245724 29.004452 -2.871232
2007-04-04 06:53:20 51°16.176 2°53.082 8.7877 3.245414 29.002927 -2.871232
2007-04-04 06:53:25 51°16.193 2°53.07 8.7818 3.245103 29.000628 -2.871232
2007-04-04 06:53:30 51°16.208 2°53.059 8.7816 3.244896 28.997808 -2.871232
2007-04-04 06:53:35 51°16.224 2°53.047 8.7827 3.244896 28.997808 -2.871232
2007-04-04 06:53:40 51°16.24 2°53.035 8.7843 3.244689 28.994988 -2.871232
2007-04-04 06:53:45 51°16.257 2°53.024 8.7827 3.244586 28.993965 -2.871232
2007-04-04 06:53:50 51°16.273 2°53.013 8.7823 3.244482 28.992169 -2.871232
2007-04-04 06:53:55 51°16.289 2°53.001 8.7817 3.244379 28.991145 -2.871232
2007-04-04 06:54:00 51°16.305 2°52.99 8.781 3.244275 28.990121 -2.871232
2007-04-04 06:54:05 51°16.321 2°52.978 8.7766 3.244275 28.990121 -2.871232
2007-04-04 06:54:10 51°16.337 2°52.967 8.7794 3.244275 28.990121 -2.871232
2007-04-04 06:54:15 51°16.353 2°52.955 8.7763 3.244172 28.988326 -2.871232
2007-04-04 06:54:20 51°16.369 2°52.943 8.7793 3.244275 28.990121 -2.871232
2007-04-04 06:54:25 51°16.385 2°52.932 8.7779 3.244275 28.991666 -2.871232
2007-04-04 06:54:30 51°16.401 2°52.92 8.7812 3.244275 28.992438 -2.871232
2007-04-04 06:54:35 51°16.417 2°52.908 8.7805 3.244275 28.992438 -2.871232
2007-04-04 06:54:40 51°16.434 2°52.897 8.7784 3.244172 28.992187 -2.871232
2007-04-04 06:54:45 51°16.45 2°52.886 8.7771 3.244275 28.993983 -2.871232
2007-04-04 06:54:50 51°16.466 2°52.875 8.7776 3.244379 28.995007 -2.871232
2007-04-04 06:54:56 51°16.485 2°52.862 8.7754 3.244586 28.997827 -2.871232
2007-04-04 06:55:00 51°16.498 2°52.853 8.7777 3.244793 28.999875 -2.871232
2007-04-04 06:55:05 51°16.515 2°52.842 8.7841 3.244793 28.999875 -2.871232
2007-04-04 06:55:10 51°16.531 2°52.831 8.7793 3.245103 29.002173 -2.871232
2007-04-04 06:55:15 51°16.547 2°52.82 8.7788 3.24531 29.004221 -2.871232
2007-04-04 06:55:20 51°16.563 2°52.809 8.7709 3.245414 29.006017 -2.871232
2007-04-04 06:55:25 51°16.58 2°52.798 8.7785 3.245621 29.008838 -2.871232
2007-04-04 06:55:30 51°16.596 2°52.788 8.7726 3.245724 29.009862 -2.871232
2007-04-04 06:55:35 51°16.613 2°52.777 8.7737 3.245724 29.009862 -2.871232
2007-04-04 06:55:41 51°16.632 2°52.766 8.7722 3.245931 29.011137 -2.871232
2007-04-04 06:55:45 51°16.646 2°52.758 8.7786 3.246138 29.013957 -2.871232
2007-04-04 06:55:50 51°16.662 2°52.748 8.7752 3.246345 29.016778 -2.871232
2007-04-04 06:55:55 51°16.679 2°52.739 8.7753 3.246552 29.019599 -2.871232
2007-04-04 06:56:00 51°16.696 2°52.729 8.7707 3.246863 29.023445 -2.871232
2007-04-04 06:56:05 51°16.712 2°52.72 8.7718 3.246863 29.023445 -2.871232
2007-04-04 06:56:10 51°16.728 2°52.711 8.7748 3.24707 29.026266 -2.871232
2007-04-04 06:56:15 51°16.745 2°52.701 8.7732 3.247277 29.027541 -2.871232
2007-04-04 06:56:20 51°16.761 2°52.692 8.7722 3.247587 29.030613 -2.871232
2007-04-04 06:56:25 51°16.777 2°52.682 8.7725 3.248001 29.035483 -2.871232
2007-04-04 06:56:30 51°16.793 2°52.672 8.7716 3.248519 29.041377 -2.871232
2007-04-04 06:56:35 51°16.809 2°52.663 8.772 3.248519 29.041377 -2.871232
2007-04-04 06:56:40 51°16.825 2°52.653 8.7748 3.24914 29.048296 -2.871232
2007-04-04 06:56:45 51°16.842 2°52.643 8.7737 3.249761 29.053667 -2.871232
2007-04-04 06:56:50 51°16.858 2°52.635 8.7715 3.250485 29.060837 -2.871232
2007-04-04 06:56:55 51°16.874 2°52.625 8.772 3.251314 29.069031 -2.871232
2007-04-04 06:57:00 51°16.89 2°52.617 8.7733 3.251935 29.075951 -2.871232
2007-04-04 06:57:05 51°16.906 2°52.607 8.7724 3.251935 29.075951 -2.871232
2007-04-04 06:57:10 51°16.922 2°52.597 8.7769 3.252452 29.081073 -2.871232
2007-04-04 06:57:16 51°16.941 2°52.587 8.7752 3.25121 29.068006 -2.871232
2007-04-04 06:57:20 51°16.954 2°52.579 8.7704 3.253384 29.091068 -2.871232
2007-04-04 06:57:25 51°16.97 2°52.569 8.7709 3.253694 29.094916 -2.871232
2007-04-04 06:57:30 51°16.986 2°52.559 8.7725 3.253901 29.096965 -2.871232
2007-04-04 06:57:36 51°17.006 2°52.548 8.7704 3.253901 29.096965 -2.871232
2007-04-04 06:57:40 51°17.019 2°52.54 8.7709 3.254212 29.099263 -2.871232
2007-04-04 06:57:45 51°17.035 2°52.53 8.7686 3.254522 29.101561 -2.871232
2007-04-04 06:57:50 51°17.051 2°52.521 8.7755 3.254936 29.106435 -2.871232
2007-04-04 06:57:55 51°17.067 2°52.511 8.7732 3.255454 29.112333 -2.871232
2007-04-04 06:58:00 51°17.083 2°52.502 8.7774 3.255971 29.117456 -2.871232
2007-04-04 06:58:05 51°17.099 2°52.492 8.7796 3.255971 29.117456 -2.871232
2007-04-04 06:58:10 51°17.115 2°52.482 8.7876 3.256489 29.122579 -2.871232
2007-04-04 06:58:15 51°17.131 2°52.473 8.7877 3.25711 29.128727 -2.871232
2007-04-04 06:58:20 51°17.147 2°52.464 8.789 3.257834 29.135899 -2.871232
2007-04-04 06:58:25 51°17.164 2°52.454 8.7915 3.258559 29.142295 -2.871232
2007-04-04 06:58:30 51°17.18 2°52.444 8.7925 3.259283 29.147915 -2.871232
2007-04-04 06:58:35 51°17.196 2°52.435 8.7965 3.259283 29.147915 -2.871232
2007-04-04 06:58:40 51°17.212 2°52.425 8.7954 3.260112 29.154558 -2.871232
2007-04-04 06:58:45 51°17.229 2°52.415 8.7955 3.260836 29.158623 -2.871232
2007-04-04 06:58:50 51°17.245 2°52.405 8.7983 3.261975 29.166785 -2.871232
2007-04-04 06:58:55 51°17.261 2°52.395 8.7944 3.262906 29.174451 -2.871232
2007-04-04 06:59:00 51°17.277 2°52.385 8.7951 3.263734 29.179538 -2.871232
2007-04-04 06:59:05 51°17.294 2°52.375 8.8001 3.263734 29.179538 -2.871232
2007-04-04 06:59:10 51°17.31 2°52.365 8.7991 3.264355 29.18413 -2.871232
2007-04-04 06:59:16 51°17.33 2°52.352 8.7976 3.26508 29.190523 -2.871232
2007-04-04 06:59:20 51°17.342 2°52.345 8.8004 3.265597 29.193313 -2.871232
2007-04-04 06:59:25 51°17.359 2°52.334 8.8044 3.266322 29.201261 -2.871232
2007-04-04 06:59:30 51°17.375 2°52.324 8.8055 3.266736 29.204581 -2.871232
2007-04-04 06:59:36 51°17.393 2°52.31 8.8011 3.266736 29.204581 -2.871232
2007-04-04 06:59:40 51°17.406 2°52.301 8.7991 3.265494 29.191511 -2.871232
2007-04-04 06:59:45 51°17.422 2°52.288 8.7969 3.266736 29.203803 -2.871232
2007-04-04 06:59:50 51°17.437 2°52.275 8.7957 3.267667 29.212245 -2.871232
2007-04-04 06:59:55 51°17.453 2°52.26 8.796 3.267771 29.211713 -2.871232
2007-04-04 07:00:00 51°17.468 2°52.247 8.8033 3.268288 29.216057 -2.871232
2007-04-04 07:00:05 51°17.483 2°52.234 8.7997 3.268288 29.216057 -2.871232
2007-04-04 07:00:10 51°17.499 2°52.22 8.7983 3.268702 29.220154 -2.871232
2007-04-04 07:00:15 51°17.514 2°52.206 8.7928 3.269117 29.225808 -2.871232
2007-04-04 07:00:20 51°17.529 2°52.192 8.7911 3.269531 29.231463 -2.871232
2007-04-04 07:00:25 51°17.544 2°52.177 8.7932 3.269841 29.234537 -2.871232
2007-04-04 07:00:30 51°17.559 2°52.164 8.7911 3.269945 29.235561 -2.871232
2007-04-04 07:00:35 51°17.574 2°52.149 8.7924 3.269945 29.235561 -2.871232
2007-04-04 07:00:40 51°17.59 2°52.136 8.7879 3.269945 29.234783 -2.871232
2007-04-04 07:00:45 51°17.606 2°52.122 8.7894 3.269945 29.23634 -2.871232
2007-04-04 07:00:50 51°17.621 2°52.108 8.7873 3.269841 29.236094 -2.871232
2007-04-04 07:00:55 51°17.636 2°52.094 8.7943 3.269634 29.234824 -2.871232
2007-04-04 07:01:00 51°17.652 2°52.081 8.7882 3.269427 29.234332 -2.871232
2007-04-04 07:01:05 51°17.667 2°52.067 8.7887 3.269427 29.234332 -2.871232
2007-04-04 07:01:10 51°17.683 2°52.052 8.7899 3.269324 29.234086 -2.871232
2007-04-04 07:01:15 51°17.698 2°52.038 8.7849 3.26891 29.231544 -2.871232
2007-04-04 07:01:20 51°17.714 2°52.024 8.787 3.268599 29.229249 -2.871232
2007-04-04 07:01:25 51°17.73 2°52.01 8.7847 3.268392 29.226421 -2.871232
2007-04-04 07:01:30 51°17.745 2°51.996 8.7831 3.268496 29.229003 -2.871232
2007-04-04 07:01:35 51°17.761 2°51.982 8.7853 3.268496 29.229003 -2.871232
2007-04-04 07:01:40 51°17.776 2°51.968 8.7834 3.268599 29.230028 -2.871232
2007-04-04 07:01:45 51°17.791 2°51.952 8.7831 3.268806 29.232077 -2.871232
2007-04-04 07:01:50 51°17.806 2°51.938 8.7818 3.269117 29.23593 -2.871232
2007-04-04 07:01:55 51°17.821 2°51.923 8.7822 3.269324 29.238759 -2.871232
2007-04-04 07:02:00 51°17.837 2°51.907 8.7849 3.269841 29.245442 -2.871232
2007-04-04 07:02:05 51°17.852 2°51.893 8.783 3.269841 29.245442 -2.871232
2007-04-04 07:02:10 51°17.867 2°51.878 8.784 3.270359 29.251346 -2.871232
2007-04-04 07:02:15 51°17.883 2°51.864 8.7804 3.271083 29.258521 -2.871232
2007-04-04 07:02:20 51°17.898 2°51.849 8.7812 3.271601 29.264425 -2.871232
2007-04-04 07:02:25 51°17.914 2°51.834 8.7829 3.272118 29.269551 -2.871232
2007-04-04 07:02:30 51°17.929 2°51.82 8.7831 3.272429 29.271846 -2.871232
2007-04-04 07:02:35 51°17.945 2°51.805 8.7792 3.272429 29.271846 -2.871232
2007-04-04 07:02:40 51°17.96 2°51.791 8.7801 3.27274 29.274921 -2.871232
2007-04-04 07:02:45 51°17.975 2°51.775 8.7834 3.273154 29.279802 -2.871232
2007-04-04 07:02:50 51°17.991 2°51.76 8.7841 3.273361 29.283413 -2.871232
2007-04-04 07:02:55 51°18.007 2°51.745 8.7822 3.273361 29.283413 -2.871232
2007-04-04 07:03:00 51°18.022 2°51.731 8.7869 3.273464 29.284438 -2.871232
2007-04-04 07:03:05 51°18.038 2°51.716 8.7805 3.273464 29.284438 -2.871232
2007-04-04 07:03:10 51°18.054 2°51.702 8.7805 3.273775 29.289075 -2.871232
2007-04-04 07:03:15 51°18.069 2°51.686 8.779 3.273982 29.291125 -2.871232
2007-04-04 07:03:20 51°18.085 2°51.672 8.7799 3.274085 29.290589 -2.871232
2007-04-04 07:03:25 51°18.1 2°51.657 8.7793 3.274292 29.291859 -2.871232
2007-04-04 07:03:30 51°18.116 2°51.642 8.7844 3.274499 29.29391 -2.871232
2007-04-04 07:03:35 51°18.132 2°51.627 8.7876 3.274499 29.29391 -2.871232
2007-04-04 07:03:40 51°18.147 2°51.612 8.7913 3.274706 29.296741 -2.871232
2007-04-04 07:03:45 51°18.163 2°51.597 8.7817 3.274913 29.300353 -2.871232
2007-04-04 07:03:50 51°18.179 2°51.582 8.7791 3.275017 29.302159 -2.871232
2007-04-04 07:03:55 51°18.195 2°51.568 8.7787 3.275224 29.30421 -2.871232
2007-04-04 07:04:00 51°18.211 2°51.552 8.7773 3.275431 29.30548 -2.871232
2007-04-04 07:04:05 51°18.227 2°51.538 8.7753 3.275431 29.30548 -2.871232
2007-04-04 07:04:10 51°18.243 2°51.522 8.7788 3.275638 29.303626 -2.871232
2007-04-04 07:04:15 51°18.259 2°51.508 8.7777 3.275845 29.304896 -2.871232
2007-04-04 07:04:20 51°18.275 2°51.492 8.7742 3.276052 29.308508 -2.871232
2007-04-04 07:04:25 51°18.29 2°51.477 8.7743 3.276052 29.311632 -2.871232
2007-04-04 07:04:30 51°18.306 2°51.46 8.7798 3.275948 29.312169 -2.871232
2007-04-04 07:04:35 51°18.321 2°51.442 8.7681 3.275948 29.312169 -2.871232
2007-04-04 07:04:40 51°18.334 2°51.423 8.768 3.275948 29.312169 -2.871232
2007-04-04 07:04:45 51°18.348 2°51.404 8.7698 3.275948 29.31295 -2.871232
2007-04-04 07:04:50 51°18.362 2°51.383 8.767 3.275948 29.313731 -2.871232
2007-04-04 07:04:55 51°18.375 2°51.362 8.7674 3.275948 29.314513 -2.871232
2007-04-04 07:05:00 51°18.388 2°51.341 8.7654 3.276156 29.317345 -2.871232
2007-04-04 07:05:05 51°18.401 2°51.32 8.7633 3.276156 29.317345 -2.871232
2007-04-04 07:05:10 51°18.414 2°51.299 8.7608 3.276363 29.322522 -2.871232
2007-04-04 07:05:15 51°18.426 2°51.277 8.7596 3.276673 29.327163 -2.871232
2007-04-04 07:05:20 51°18.439 2°51.255 8.7538 3.277087 29.33283 -2.871232
2007-04-04 07:05:25 51°18.452 2°51.234 8.7531 3.277708 29.340549 -2.871232
2007-04-04 07:05:30 51°18.465 2°51.212 8.7527 3.278536 29.348757 -2.871232
2007-04-04 07:05:35 51°18.478 2°51.19 8.7487 3.278536 29.348757 -2.871232
2007-04-04 07:05:40 51°18.49 2°51.167 8.7467 3.279364 29.359313 -2.871232
2007-04-04 07:05:45 51°18.502 2°51.143 8.7474 3.280193 29.369088 -2.871232
2007-04-04 07:05:50 51°18.512 2°51.117 8.7475 3.281124 29.380674 -2.871232
2007-04-04 07:05:55 51°18.522 2°51.09 8.7506 3.281849 29.390993 -2.871232
2007-04-04 07:06:00 51°18.531 2°51.064 8.748 3.282263 29.397451 -2.871232
2007-04-04 07:06:05 51°18.541 2°51.037 8.7448 3.282263 29.397451 -2.871232
2007-04-04 07:06:10 51°18.549 2°51.009 8.7483 3.283091 29.407232 -2.871232
2007-04-04 07:06:15 51°18.557 2°50.98 8.7536 3.284954 29.428853 -2.871232
2007-04-04 07:06:20 51°18.565 2°50.952 8.7635 3.286507 29.444256 -2.871232
2007-04-04 07:06:25 51°18.572 2°50.922 8.7683 3.287956 29.459419 -2.871232
2007-04-04 07:06:30 51°18.579 2°50.892 8.7713 3.289198 29.470958 -2.871232
2007-04-04 07:06:35 51°18.586 2°50.863 8.7744 3.289198 29.470958 -2.871232
2007-04-04 07:06:40 51°18.592 2°50.833 8.7781 3.290544 29.485883 -2.871232
2007-04-04 07:06:45 51°18.6 2°50.803 8.7839 3.292511 29.504613 -2.871232
2007-04-04 07:06:50 51°18.606 2°50.773 8.7896 3.294892 29.52509 -2.871232
2007-04-04 07:06:55 51°18.614 2°50.744 8.7945 3.296651 29.537038 -2.871232
2007-04-04 07:07:00 51°18.621 2°50.715 8.7896 3.298515 29.550799 -2.871232
2007-04-04 07:07:05 51°18.628 2°50.685 8.789 3.298515 29.550799 -2.871232
2007-04-04 07:07:10 51°18.635 2°50.655 8.7902 3.300171 29.563291 -2.871232
2007-04-04 07:07:15 51°18.642 2°50.626 8.7938 3.301309 29.570646 -2.871232
2007-04-04 07:07:20 51°18.647 2°50.595 8.799 3.30193 29.572077 -2.871232
2007-04-04 07:07:25 51°18.656 2°50.567 8.7932 3.302966 29.577615 -2.871232
2007-04-04 07:07:30 51°18.663 2°50.538 8.7942 3.304208 29.587569 -2.871232
2007-04-04 07:07:35 51°18.67 2°50.509 8.79 3.304208 29.587569 -2.871232
2007-04-04 07:07:40 51°18.677 2°50.48 8.787 3.305139 29.596021 -2.871232
2007-04-04 07:07:45 51°18.685 2°50.451 8.7843 3.305968 29.603445 -2.871232
2007-04-04 07:07:50 51°18.691 2°50.421 8.7885 3.306589 29.608028 -2.871232
2007-04-04 07:07:55 51°18.699 2°50.393 8.7905 3.307106 29.611583 -2.871232
2007-04-04 07:08:00 51°18.705 2°50.362 8.792 3.30752 29.616478 -2.871232
2007-04-04 07:08:05 51°18.713 2°50.334 8.7974 3.30752 29.616478 -2.871232
2007-04-04 07:08:10 51°18.718 2°50.304 8.7913 3.308038 29.621612 -2.871232
2007-04-04 07:08:15 51°18.725 2°50.275 8.7967 3.308348 29.62706 -2.871232
2007-04-04 07:08:20 51°18.733 2°50.247 8.7907 3.308659 29.63093 -2.871232
2007-04-04 07:08:25 51°18.739 2°50.218 8.7932 3.308763 29.631167 -2.871232
2007-04-04 07:08:30 51°18.745 2°50.187 8.7884 3.309073 29.632669 -2.871232
2007-04-04 07:08:35 51°18.753 2°50.158 8.794 3.309073 29.632669 -2.871232
2007-04-04 07:08:40 51°18.759 2°50.128 8.7932 3.309177 29.632116 -2.871232
2007-04-04 07:08:45 51°18.765 2°50.098 8.7955 3.309487 29.634407 -2.871232
2007-04-04 07:08:50 51°18.771 2°50.069 8.7994 3.309694 29.63646 -2.871232
2007-04-04 07:08:55 51°18.777 2°50.039 8.8008 3.310005 29.64033 -2.871232
2007-04-04 07:09:00 51°18.784 2°50.008 8.7973 3.310315 29.6442 -2.871232
2007-04-04 07:09:05 51°18.789 2°49.978 8.7962 3.310315 29.6442 -2.871232
2007-04-04 07:09:10 51°18.796 2°49.949 8.7968 3.310522 29.646254 -2.871232
2007-04-04 07:09:15 51°18.801 2°49.918 8.8002 3.304311 29.584654 -2.871232
2007-04-04 07:09:20 51°18.807 2°49.888 8.8026 3.310522 29.645464 -2.871232
2007-04-04 07:09:25 51°18.813 2°49.858 8.8012 3.310315 29.641831 -2.871232
2007-04-04 07:09:30 51°18.818 2°49.827 8.8036 3.31135 29.652098 -2.871232
2007-04-04 07:09:35 51°18.823 2°49.798 8.8064 3.31135 29.652098 -2.871232
2007-04-04 07:09:40 51°18.828 2°49.767 8.8033 3.311661 29.654388 -2.871232
2007-04-04 07:09:45 51°18.834 2°49.738 8.8045 3.311661 29.654388 -2.871232
2007-04-04 07:09:50 51°18.838 2°49.706 8.8072 3.311661 29.653598 -2.871232
2007-04-04 07:09:55 51°18.845 2°49.677 8.813 3.311661 29.652018 -2.871232
2007-04-04 07:10:00 51°18.849 2°49.646 8.8086 3.311764 29.651465 -2.871232
2007-04-04 07:10:05 51°18.855 2°49.616 8.8062 3.311764 29.651465 -2.871232
2007-04-04 07:10:10 51°18.86 2°49.586 8.802 3.311868 29.650912 -2.871232
2007-04-04 07:10:15 51°18.866 2°49.556 8.7983 3.312075 29.652175 -2.871232
2007-04-04 07:10:20 51°18.87 2°49.524 8.8128 3.311247 29.642384 -2.871232
2007-04-04 07:10:25 51°18.877 2°49.495 8.8058 3.312282 29.64949 -2.871232
2007-04-04 07:10:30 51°18.88 2°49.464 8.8073 3.311454 29.64049 -2.871232
2007-04-04 07:10:35 51°18.887 2°49.434 8.8092 3.311454 29.64049 -2.871232
2007-04-04 07:10:40 51°18.892 2°49.404 8.8048 3.313214 29.658728 -2.871232
2007-04-04 07:10:45 51°18.897 2°49.373 8.8112 3.314352 29.671599 -2.871232
2007-04-04 07:10:50 51°18.905 2°49.344 8.8094 3.313214 29.659518 -2.871232
2007-04-04 07:10:55 51°18.911 2°49.314 8.804 3.315077 29.676414 -2.871232
2007-04-04 07:11:00 51°18.916 2°49.283 8.808 3.315284 29.678467 -2.871232
2007-04-04 07:11:05 51°18.923 2°49.253 8.8037 3.315284 29.678467 -2.871232
2007-04-04 07:11:10 51°18.928 2°49.224 8.8079 3.316319 29.688733 -2.871232
2007-04-04 07:11:15 51°18.935 2°49.194 8.8074 3.315802 29.685181 -2.871232
2007-04-04 07:11:20 51°18.94 2°49.163 8.805 3.316216 29.688497 -2.871232
2007-04-04 07:11:25 51°18.948 2°49.134 8.8113 3.317665 29.70366 -2.871232
2007-04-04 07:11:30 51°18.954 2°49.104 8.8045 3.318079 29.70935 -2.871232
2007-04-04 07:11:35 51°18.96 2°49.074 8.8034 3.318079 29.70935 -2.871232
2007-04-04 07:11:40 51°18.967 2°49.044 8.8011 3.318804 29.716537 -2.871232
2007-04-04 07:11:45 51°18.973 2°49.014 8.8007 3.318907 29.717564 -2.871232
2007-04-04 07:11:50 51°18.979 2°48.983 8.8046 3.318804 29.715746 -2.871232
2007-04-04 07:11:55 51°18.985 2°48.952 8.8152 3.319218 29.719853 -2.871232
2007-04-04 07:12:00 51°18.992 2°48.923 8.8017 3.320253 29.730121 -2.871232
2007-04-04 07:12:05 51°18.999 2°48.893 8.7939 3.320253 29.730121 -2.871232
2007-04-04 07:12:10 51°19.005 2°48.863 8.7919 3.319321 29.723255 -2.871232
2007-04-04 07:12:15 51°19.013 2°48.833 8.7847 3.319321 29.724838 -2.871232
2007-04-04 07:12:20 51°19.018 2°48.802 8.7859 3.319528 29.726892 -2.871232
2007-04-04 07:12:25 51°19.025 2°48.771 8.7878 3.319839 29.728389 -2.871232
2007-04-04 07:12:30 51°19.03 2°48.74 8.7953 3.320253 29.733289 -2.871232
2007-04-04 07:12:35 51°19.036 2°48.709 8.7864 3.320253 29.733289 -2.871232
2007-04-04 07:12:40 51°19.042 2°48.677 8.7895 3.320564 29.739538 -2.871232
2007-04-04 07:12:45 51°19.047 2°48.647 8.7899 3.320978 29.747609 -2.871232
2007-04-04 07:12:50 51°19.053 2°48.616 8.7886 3.320978 29.75078 -2.871232
2007-04-04 07:12:55 51°19.058 2°48.585 8.7902 3.322013 29.76264 -2.871232
2007-04-04 07:13:00 51°19.063 2°48.554 8.7889 3.322324 29.765722 -2.871232
2007-04-04 07:13:05 51°19.068 2°48.524 8.7943 3.322324 29.765722 -2.871232
2007-04-04 07:13:10 51°19.074 2°48.493 8.7934 3.323669 29.779873 -2.871232
2007-04-04 07:13:15 51°19.079 2°48.463 8.7885 3.324084 29.783983 -2.871232
2007-04-04 07:13:20 51°19.085 2°48.432 8.795 3.325015 29.793232 -2.871232
2007-04-04 07:13:25 51°19.09 2°48.402 8.7869 3.325843 29.801453 -2.871232
2007-04-04 07:13:30 51°19.095 2°48.371 8.7883 3.324084 29.78319 -2.871232
2007-04-04 07:13:35 51°19.101 2°48.34 8.789 3.324084 29.78319 -2.871232
2007-04-04 07:13:40 51°19.106 2°48.309 8.79 3.327914 29.820418 -2.871232
2007-04-04 07:13:45 51°19.112 2°48.279 8.7887 3.327914 29.818829 -2.871232
2007-04-04 07:13:50 51°19.118 2°48.249 8.7883 3.328846 29.828872 -2.871232
2007-04-04 07:13:55 51°19.124 2°48.219 8.7892 3.329984 29.841768 -2.871232
2007-04-04 07:14:00 51°19.129 2°48.188 8.7833 3.331434 29.856954 -2.871232
2007-04-04 07:14:05 51°19.135 2°48.157 8.7847 3.331434 29.856954 -2.871232
2007-04-04 07:14:10 51°19.14 2°48.126 8.7879 3.331848 29.861066 -2.871232
2007-04-04 07:14:15 51°19.146 2°48.096 8.787 3.332055 29.86153 -2.871232
2007-04-04 07:14:20 51°19.152 2°48.065 8.7859 3.333504 29.877514 -2.871232
2007-04-04 07:14:25 51°19.158 2°48.035 8.7889 3.333504 29.87831 -2.871232
2007-04-04 07:14:30 51°19.163 2°48.003 8.7869 3.333608 29.881727 -2.871232
2007-04-04 07:14:35 51°19.169 2°47.973 8.7917 3.333608 29.881727 -2.871232
2007-04-04 07:14:40 51°19.175 2°47.942 8.7868 3.334332 29.888924 -2.871232
2007-04-04 07:14:45 51°19.181 2°47.911 8.7887 3.333711 29.881959 -2.871232
2007-04-04 07:14:50 51°19.187 2°47.88 8.7899 3.334229 29.887896 -2.871232
2007-04-04 07:14:55 51°19.193 2°47.85 8.7907 3.333504 29.879903 -2.871232
2007-04-04 07:15:00 51°19.199 2°47.819 8.7925 3.333815 29.882987 -2.871232
2007-04-04 07:15:05 51°19.204 2°47.788 8.7953 3.333815 29.882987 -2.871232
2007-04-04 07:15:10 51°19.21 2°47.757 8.7924 3.333504 29.879106 -2.871232
2007-04-04 07:15:15 51°19.216 2°47.727 8.7902 3.332573 29.869854 -2.871232
2007-04-04 07:15:20 51°19.222 2°47.695 8.7901 3.332365 29.867798 -2.871232
2007-04-04 07:15:25 51°19.227 2°47.664 8.7935 3.332365 29.867002 -2.871232
2007-04-04 07:15:30 51°19.233 2°47.633 8.7954 3.332469 29.866438 -2.871232
2007-04-04 07:15:35 51°19.239 2°47.602 8.7968 3.332469 29.866438 -2.871232
2007-04-04 07:15:40 51°19.244 2°47.571 8.7951 3.331434 29.854567 -2.871232
2007-04-04 07:15:45 51°19.25 2°47.54 8.7924 3.332158 29.861762 -2.871232
2007-04-04 07:15:50 51°19.255 2°47.509 8.7917 3.331848 29.859474 -2.871232
2007-04-04 07:15:55 51°19.261 2°47.479 8.7913 3.331434 29.854567 -2.871232
2007-04-04 07:16:00 51°19.267 2°47.448 8.7909 3.330916 29.848633 -2.871232
2007-04-04 07:16:05 51°19.272 2°47.416 8.7919 3.330916 29.848633 -2.871232
2007-04-04 07:16:10 51°19.278 2°47.386 8.7919 3.329881 29.83756 -2.871232
2007-04-04 07:16:15 51°19.283 2°47.354 8.7961 3.329674 29.836299 -2.871232
2007-04-04 07:16:20 51°19.289 2°47.323 8.794 3.329467 29.835039 -2.871232
2007-04-04 07:16:25 51°19.295 2°47.292 8.7958 3.328742 29.82864 -2.871232
2007-04-04 07:16:30 51°19.3 2°47.261 8.7916 3.3275 29.817102 -2.871232
2007-04-04 07:16:35 51°19.307 2°47.23 8.7918 3.3275 29.817102 -2.871232
2007-04-04 07:16:40 51°19.312 2°47.198 8.7881 3.327086 29.812196 -2.871232
2007-04-04 07:16:45 51°19.318 2°47.167 8.7966 3.326672 29.808086 -2.871232
2007-04-04 07:16:50 51°19.324 2°47.135 8.7918 3.32605 29.801126 -2.871232
2007-04-04 07:16:55 51°19.33 2°47.104 8.7881 3.326258 29.803181 -2.871232
2007-04-04 07:17:00 51°19.335 2°47.073 8.7851 3.326154 29.802948 -2.871232
2007-04-04 07:17:05 51°19.341 2°47.042 8.7889 3.326154 29.802948 -2.871232
2007-04-04 07:17:10 51°19.346 2°47.01 8.789 3.326258 29.804769 -2.871232
2007-04-04 07:17:15 51°19.352 2°46.98 8.7918 3.326568 29.809441 -2.871232
2007-04-04 07:17:20 51°19.356 2°46.947 8.7938 3.327293 29.815841 -2.871232
2007-04-04 07:17:25 51°19.362 2°46.917 8.7957 3.328432 29.827941 -2.871232
2007-04-04 07:17:30 51°19.367 2°46.885 8.7918 3.329881 29.843922 -2.871232
2007-04-04 07:17:35 51°19.372 2°46.854 8.7967 3.329881 29.843922 -2.871232
2007-04-04 07:17:40 51°19.378 2°46.823 8.7901 3.331123 29.855462 -2.871232
2007-04-04 07:17:45 51°19.383 2°46.791 8.7897 3.332262 29.865974 -2.871232
2007-04-04 07:17:50 51°19.39 2°46.761 8.7866 3.333401 29.874893 -2.871232
2007-04-04 07:17:55 51°19.394 2°46.729 8.7842 3.334436 29.882784 -2.871232
2007-04-04 07:18:00 51°19.401 2°46.698 8.7806 3.335989 29.897407 -2.871232
2007-04-04 07:18:05 51°19.406 2°46.666 8.7867 3.335989 29.897407 -2.871232
2007-04-04 07:18:10 51°19.412 2°46.635 8.7809 3.337231 29.91054 -2.871232
2007-04-04 07:18:15 51°19.418 2°46.604 8.7801 3.338266 29.922416 -2.871232
2007-04-04 07:18:20 51°19.423 2°46.572 8.779 3.338784 29.929152 -2.871232
2007-04-04 07:18:25 51°19.43 2°46.542 8.7707 3.339405 29.936917 -2.871232
2007-04-04 07:18:30 51°19.435 2°46.511 8.7728 3.340026 29.944684 -2.871232
2007-04-04 07:18:35 51°19.442 2°46.48 8.7896 3.340026 29.944684 -2.871232
2007-04-04 07:18:40 51°19.447 2°46.449 8.7733 3.34044 29.947999 -2.871232
2007-04-04 07:18:45 51°19.452 2°46.418 8.771 3.341372 29.958852 -2.871232
2007-04-04 07:18:50 51°19.459 2°46.388 8.7689 3.341993 29.96742 -2.871232
2007-04-04 07:18:55 51°19.465 2°46.356 8.7719 3.342718 29.978616 -2.871232
2007-04-04 07:19:00 51°19.471 2°46.326 8.7751 3.343339 29.985589 -2.871232
2007-04-04 07:19:05 51°19.478 2°46.295 8.7736 3.343339 29.985589 -2.871232
2007-04-04 07:19:10 51°19.484 2°46.265 8.7792 3.343857 29.991533 -2.871232
2007-04-04 07:19:15 51°19.489 2°46.233 8.7809 3.344996 30.003651 -2.871232
2007-04-04 07:19:20 51°19.496 2°46.204 8.7867 3.346238 30.0176 -2.871232
2007-04-04 07:19:25 51°19.5 2°46.172 8.7881 3.347895 30.036469 -2.871232
2007-04-04 07:19:30 51°19.507 2°46.143 8.7893 3.349551 30.052137 -2.871232
2007-04-04 07:19:35 51°19.511 2°46.111 8.7864 3.349551 30.052137 -2.871232
2007-04-04 07:19:40 51°19.518 2°46.081 8.7965 3.351414 30.069864 -2.871232
2007-04-04 07:19:45 51°19.523 2°46.05 8.7918 3.353485 30.088046 -2.871232
2007-04-04 07:19:50 51°19.528 2°46.02 8.7932 3.354624 30.09616 -2.871232
2007-04-04 07:19:55 51°19.534 2°45.99 8.7936 3.35628 30.109419 -2.871232
2007-04-04 07:20:00 51°19.538 2°45.958 8.7932 3.357523 30.119363 -2.871232
2007-04-04 07:20:05 51°19.545 2°45.928 8.7979 3.357523 30.119363 -2.871232
2007-04-04 07:20:10 51°19.548 2°45.896 8.7966 3.358558 30.128853 -2.871232
2007-04-04 07:20:15 51°19.554 2°45.866 8.7977 3.359179 30.132619 -2.871232
2007-04-04 07:20:20 51°19.56 2°45.835 8.7951 3.359904 30.138218 -2.871232
2007-04-04 07:20:25 51°19.565 2°45.804 8.7939 3.360421 30.142561 -2.871232
2007-04-04 07:20:30 51°19.572 2°45.775 8.7954 3.360939 30.146904 -2.871232
2007-04-04 07:20:35 51°19.576 2°45.743 8.7925 3.360939 30.146904 -2.871232
2007-04-04 07:20:40 51°19.584 2°45.714 8.7989 3.36125 30.147581 -2.871232
2007-04-04 07:20:45 51°19.589 2°45.683 8.7933 3.36156 30.149865 -2.871232
2007-04-04 07:20:50 51°19.596 2°45.652 8.7932 3.361767 30.15112 -2.871232
2007-04-04 07:20:55 51°19.601 2°45.621 8.7969 3.362181 30.15604 -2.871232
2007-04-04 07:21:00 51°19.607 2°45.59 8.8017 3.362492 30.159128 -2.871232
2007-04-04 07:21:05 51°19.613 2°45.561 8.7998 3.362492 30.159128 -2.871232
2007-04-04 07:21:10 51°19.619 2°45.53 8.8026 3.362802 30.163019 -2.871232
2007-04-04 07:21:15 51°19.625 2°45.499 8.7979 3.362802 30.163019 -2.871232
2007-04-04 07:21:20 51°19.632 2°45.469 8.8018 3.363217 30.167136 -2.871232
2007-04-04 07:21:25 51°19.638 2°45.438 8.7988 3.36332 30.168166 -2.871232
2007-04-04 07:21:30 51°19.644 2°45.408 8.8008 3.363631 30.169646 -2.871232
2007-04-04 07:21:35 51°19.649 2°45.377 8.8082 3.363631 30.169646 -2.871232
2007-04-04 07:21:40 51°19.656 2°45.346 8.8073 3.363941 30.171125 -2.871232
2007-04-04 07:21:45 51°19.662 2°45.316 8.8027 3.364355 30.175242 -2.871232
2007-04-04 07:21:50 51°19.668 2°45.285 8.8072 3.365184 30.183476 -2.871232
2007-04-04 07:21:55 51°19.673 2°45.253 8.8083 3.365908 30.189877 -2.871232
2007-04-04 07:22:00 51°19.679 2°45.222 8.8029 3.366737 30.198111 -2.871232
2007-04-04 07:22:05 51°19.685 2°45.191 8.8087 3.366737 30.198111 -2.871232
2007-04-04 07:22:10 51°19.691 2°45.16 8.8085 3.367565 30.203931 -2.871232
2007-04-04 07:22:15 51°19.697 2°45.129 8.8057 3.368393 30.212165 -2.871232
2007-04-04 07:22:20 51°19.702 2°45.098 8.8047 3.369428 30.221653 -2.871232
2007-04-04 07:22:25 51°19.707 2°45.067 8.807 3.370257 30.227472 -2.871232
2007-04-04 07:22:30 51°19.714 2°45.037 8.8124 3.371396 30.240406 -2.871232
2007-04-04 07:22:35 51°19.72 2°45.007 8.8106 3.371396 30.240406 -2.871232
2007-04-04 07:22:40 51°19.727 2°44.977 8.8079 3.372224 30.247835 -2.871232
2007-04-04 07:22:45 51°19.732 2°44.947 8.8114 3.373052 30.256877 -2.871232
2007-04-04 07:22:50 51°19.739 2°44.916 8.8084 3.373673 30.263053 -2.871232
2007-04-04 07:22:55 51°19.744 2°44.886 8.8096 3.374294 30.267618 -2.871232
2007-04-04 07:23:00 51°19.749 2°44.856 8.8051 3.374916 30.272182 -2.871232
2007-04-04 07:23:05 51°19.756 2°44.826 8.8117 3.374916 30.272182 -2.871232
2007-04-04 07:23:10 51°19.76 2°44.795 8.8129 3.375744 30.281224 -2.871232
2007-04-04 07:23:15 51°19.767 2°44.765 8.8102 3.376262 30.286372 -2.871232
2007-04-04 07:23:20 51°19.772 2°44.734 8.8095 3.376676 30.289683 -2.871232
2007-04-04 07:23:25 51°19.778 2°44.704 8.8052 3.377193 30.294831 -2.871232
2007-04-04 07:23:30 51°19.784 2°44.673 8.8061 3.377711 30.300786 -2.871232
2007-04-04 07:23:35 51°19.79 2°44.642 8.8038 3.377711 30.300786 -2.871232
2007-04-04 07:23:40 51°19.796 2°44.611 8.8076 3.378022 30.303067 -2.871232
2007-04-04 07:23:45 51°19.802 2°44.581 8.802 3.378332 30.306156 -2.871232
2007-04-04 07:23:50 51°19.808 2°44.55 8.8044 3.37885 30.311304 -2.871232
2007-04-04 07:23:55 51°19.814 2°44.518 8.8038 3.379471 30.319098 -2.871232
2007-04-04 07:24:00 51°19.819 2°44.487 8.8017 3.379782 30.322995 -2.871232
2007-04-04 07:24:05 51°19.825 2°44.457 8.808 3.379782 30.322995 -2.871232
2007-04-04 07:24:10 51°19.831 2°44.426 8.8041 3.380299 30.328144 -2.871232
2007-04-04 07:24:15 51°19.838 2°44.396 8.8011 3.380714 30.332263 -2.871232
2007-04-04 07:24:20 51°19.844 2°44.365 8.7994 3.381231 30.33822 -2.871232
2007-04-04 07:24:25 51°19.85 2°44.334 8.7951 3.381542 30.342118 -2.871232
2007-04-04 07:24:30 51°19.855 2°44.303 8.798 3.381956 30.347047 -2.871232
2007-04-04 07:24:35 51°19.861 2°44.272 8.7963 3.381956 30.347047 -2.871232
2007-04-04 07:24:40 51°19.867 2°44.241 8.7998 3.382267 30.348519 -2.871232
2007-04-04 07:24:45 51°19.872 2°44.21 8.7989 3.382681 30.354256 -2.871232
2007-04-04 07:24:50 51°19.877 2°44.179 8.7989 3.383095 30.359994 -2.871232
2007-04-04 07:24:55 51°19.883 2°44.149 8.7985 3.383613 30.367572 -2.871232
2007-04-04 07:25:00 51°19.888 2°44.117 8.798 3.383923 30.371472 -2.871232
2007-04-04 07:25:05 51°19.895 2°44.087 8.802 3.383923 30.371472 -2.871232
2007-04-04 07:25:10 51°19.9 2°44.055 8.7947 3.384337 30.376402 -2.871232
2007-04-04 07:25:15 51°19.906 2°44.025 8.7941 3.384648 30.379493 -2.871232
2007-04-04 07:25:20 51°19.912 2°43.993 8.7918 3.385166 30.383835 -2.871232
2007-04-04 07:25:25 51°19.918 2°43.962 8.7995 3.385476 30.386116 -2.871232
2007-04-04 07:25:30 51°19.924 2°43.931 8.793 3.385994 30.391267 -2.871232
2007-04-04 07:25:35 51°19.928 2°43.899 8.7918 3.385994 30.391267 -2.871232
2007-04-04 07:25:40 51°19.936 2°43.869 8.7956 3.386305 30.394358 -2.871232
2007-04-04 07:25:45 51°19.941 2°43.837 8.7917 3.386615 30.39988 -2.871232
2007-04-04 07:25:50 51°19.947 2°43.806 8.792 3.386719 30.40172 -2.871232
2007-04-04 07:25:55 51°19.953 2°43.774 8.7978 3.386719 30.40172 -2.871232
2007-04-04 07:26:00 51°19.959 2°43.743 8.7894 3.386615 30.39988 -2.871232
2007-04-04 07:26:05 51°19.965 2°43.712 8.7922 3.386615 30.39988 -2.871232
2007-04-04 07:26:10 51°19.971 2°43.681 8.7943 3.386305 30.397599 -2.871232
2007-04-04 07:26:15 51°19.978 2°43.651 8.7888 3.385994 30.394507 -2.871232
2007-04-04 07:26:20 51°19.984 2°43.62 8.7893 3.385787 30.393257 -2.871232
2007-04-04 07:26:25 51°19.989 2°43.589 8.7847 3.38558 30.390386 -2.871232
2007-04-04 07:26:30 51°19.996 2°43.559 8.7812 3.385269 30.388105 -2.871232
2007-04-04 07:26:35 51°20 2°43.527 8.7861 3.385269 30.388105 -2.871232
2007-04-04 07:26:40 51°20.007 2°43.496 8.7809 3.384959 30.385823 -2.871232
2007-04-04 07:26:45 51°20.012 2°43.464 8.7793 3.384855 30.385603 -2.871232
2007-04-04 07:26:50 51°20.018 2°43.433 8.7809 3.384545 30.384131 -2.871232
2007-04-04 07:26:55 51°20.024 2°43.401 8.7733 3.384338 30.38369 -2.871232
2007-04-04 07:27:00 51°20.03 2°43.37 8.7745 3.384027 30.382218 -2.871232
2007-04-04 07:27:05 51°20.036 2°43.339 8.7725 3.384027 30.382218 -2.871232
2007-04-04 07:27:10 51°20.042 2°43.308 8.7711 3.383923 30.381188 -2.871232
2007-04-04 07:27:15 51°20.048 2°43.277 8.7708 3.383923 30.381998 -2.871232
2007-04-04 07:27:20 51°20.053 2°43.246 8.7656 3.38382 30.384207 -2.871232
2007-04-04 07:27:25 51°20.058 2°43.215 8.7638 3.38382 30.386638 -2.871232
2007-04-04 07:27:30 51°20.064 2°43.184 8.7635 3.38382 30.389069 -2.871232
2007-04-04 07:27:35 51°20.069 2°43.152 8.7642 3.38382 30.389069 -2.871232
2007-04-04 07:27:40 51°20.076 2°43.121 8.7581 3.38382 30.390689 -2.871232
2007-04-04 07:27:45 51°20.08 2°43.089 8.7562 3.38382 30.393121 -2.871232
2007-04-04 07:27:50 51°20.088 2°43.059 8.756 3.383924 30.394963 -2.871232
2007-04-04 07:27:55 51°20.091 2°43.027 8.7527 3.384027 30.399237 -2.871232
2007-04-04 07:28:00 51°20.098 2°42.996 8.7489 3.384234 30.403732 -2.871232
2007-04-04 07:28:05 51°20.103 2°42.965 8.7478 3.384234 30.403732 -2.871232
2007-04-04 07:28:10 51°20.108 2°42.933 8.7449 3.384648 30.408668 -2.871232
2007-04-04 07:28:15 51°20.115 2°42.903 8.7475 3.385477 30.419353 -2.871232
2007-04-04 07:28:20 51°20.119 2°42.871 8.7484 3.386202 30.429008 -2.871232
2007-04-04 07:28:25 51°20.125 2°42.84 8.752 3.386926 30.437854 -2.871232
2007-04-04 07:28:30 51°20.131 2°42.81 8.7472 3.387755 30.448544 -2.871232
2007-04-04 07:28:35 51°20.137 2°42.778 8.7502 3.387755 30.448544 -2.871232
2007-04-04 07:28:40 51°20.144 2°42.748 8.7497 3.388997 30.463364 -2.871232
2007-04-04 07:28:45 51°20.148 2°42.717 8.7519 3.391171 30.486662 -2.871232
2007-04-04 07:28:50 51°20.155 2°42.687 8.7521 3.394381 30.519472 -2.871232
2007-04-04 07:28:55 51°20.16 2°42.656 8.7522 3.398005 30.554787 -2.871232
2007-04-04 07:29:00 51°20.166 2°42.625 8.7563 3.401836 30.592989 -2.871232
2007-04-04 07:29:05 51°20.171 2°42.594 8.752 3.401836 30.592989 -2.871232
2007-04-04 07:29:10 51°20.177 2°42.562 8.753 3.404839 30.622935 -2.871232
2007-04-04 07:29:15 51°20.182 2°42.531 8.7605 3.407634 30.650002 -2.871232
2007-04-04 07:29:20 51°20.189 2°42.5 8.7651 3.409498 30.666956 -2.871232
2007-04-04 07:29:25 51°20.196 2°42.471 8.7607 3.411155 30.682663 -2.871232
2007-04-04 07:29:30 51°20.202 2°42.44 8.7576 3.41219 30.692992 -2.871232
2007-04-04 07:29:35 51°20.21 2°42.41 8.7676 3.41219 30.692992 -2.871232
2007-04-04 07:29:40 51°20.215 2°42.379 8.7543 3.413433 30.704569 -2.871232
2007-04-04 07:29:45 51°20.221 2°42.348 8.766 3.413847 30.707881 -2.871232
2007-04-04 07:29:50 51°20.229 2°42.32 8.7522 3.414054 30.706669 -2.871232
2007-04-04 07:29:55 51°20.234 2°42.288 8.7502 3.414572 30.711014 -2.871232
2007-04-04 07:30:00 51°20.241 2°42.259 8.7507 3.415193 30.715572 -2.871232
2007-04-04 07:30:05 51°20.246 2°42.227 8.7467 3.415193 30.715572 -2.871232
2007-04-04 07:30:10 51°20.253 2°42.197 8.7584 3.415503 30.717851 -2.871232
2007-04-04 07:30:15 51°20.257 2°42.165 8.7437 3.416021 30.723835 -2.871232
2007-04-04 07:30:20 51°20.264 2°42.135 8.7444 3.416125 30.725687 -2.871232
2007-04-04 07:30:25 51°20.27 2°42.105 8.7411 3.416228 30.73 -2.871232
2007-04-04 07:30:30 51°20.274 2°42.073 8.7411 3.416125 30.731428 -2.871232
2007-04-04 07:30:35 51°20.279 2°42.043 8.7438 3.416125 30.731428 -2.871232
2007-04-04 07:30:40 51°20.285 2°42.012 8.7445 3.416228 30.733281 -2.871232
2007-04-04 07:30:45 51°20.29 2°41.981 8.7416 3.416125 30.733068 -2.871232
2007-04-04 07:30:50 51°20.297 2°41.951 8.7441 3.415814 30.73325 -2.871232
2007-04-04 07:30:55 51°20.302 2°41.92 8.7384 3.415711 30.733037 -2.871232
2007-04-04 07:31:00 51°20.307 2°41.889 8.7386 3.415504 30.732611 -2.871232
2007-04-04 07:31:05 51°20.314 2°41.859 8.7369 3.415504 30.732611 -2.871232
2007-04-04 07:31:10 51°20.32 2°41.828 8.7364 3.415296 30.729724 -2.871232
2007-04-04 07:31:15 51°20.326 2°41.796 8.7386 3.415089 30.727657 -2.871232
2007-04-04 07:31:20 51°20.331 2°41.766 8.736 3.414986 30.728265 -2.871232
2007-04-04 07:31:25 51°20.337 2°41.735 8.7355 3.414882 30.727231 -2.871232
2007-04-04 07:31:30 51°20.344 2°41.703 8.7386 3.414779 30.727018 -2.871232
2007-04-04 07:31:35 51°20.35 2°41.672 8.7361 3.414779 30.727018 -2.871232
2007-04-04 07:31:40 51°20.356 2°41.64 8.7352 3.414675 30.726805 -2.871232
2007-04-04 07:31:45 51°20.363 2°41.61 8.7487 3.414675 30.729266 -2.871232
2007-04-04 07:31:50 51°20.369 2°41.578 8.7381 3.414572 30.728233 -2.871232
2007-04-04 07:31:55 51°20.375 2°41.547 8.7455 3.414675 30.729266 -2.871232
2007-04-04 07:32:00 51°20.382 2°41.517 8.7396 3.414675 30.728446 -2.871232
2007-04-04 07:32:05 51°20.387 2°41.485 8.7401 3.414675 30.728446 -2.871232
2007-04-04 07:32:10 51°20.391 2°41.452 8.7384 3.414675 30.729266 -2.871232
2007-04-04 07:32:15 51°20.398 2°41.421 8.7401 3.414779 30.729479 -2.871232
2007-04-04 07:32:20 51°20.404 2°41.391 8.739 3.414882 30.728872 -2.871232
2007-04-04 07:32:25 51°20.41 2°41.36 8.7437 3.414986 30.729905 -2.871232
2007-04-04 07:32:30 51°20.415 2°41.33 8.7426 3.415193 30.731972 -2.871232
2007-04-04 07:32:35 51°20.422 2°41.299 8.7398 3.415193 30.731972 -2.871232
2007-04-04 07:32:40 51°20.428 2°41.268 8.7374 3.4154 30.73486 -2.871232
2007-04-04 07:32:45 51°20.434 2°41.237 8.7363 3.415607 30.736106 -2.871232
2007-04-04 07:32:50 51°20.44 2°41.205 8.7378 3.415918 30.739206 -2.871232
2007-04-04 07:32:55 51°20.447 2°41.175 8.7386 3.416125 30.741273 -2.871232
2007-04-04 07:33:00 51°20.452 2°41.143 8.7402 3.416539 30.746228 -2.871232
2007-04-04 07:33:05 51°20.459 2°41.113 8.7397 3.416539 30.746228 -2.871232
2007-04-04 07:33:10 51°20.463 2°41.081 8.7431 3.416643 30.748082 -2.871232
2007-04-04 07:33:15 51°20.469 2°41.049 8.7387 3.416953 30.752825 -2.871232
2007-04-04 07:33:20 51°20.476 2°41.019 8.7408 3.417264 30.755926 -2.871232
2007-04-04 07:33:25 51°20.481 2°40.986 8.7376 3.417471 30.758814 -2.871232
2007-04-04 07:33:30 51°20.489 2°40.956 8.7408 3.417782 30.761094 -2.871232
2007-04-04 07:33:35 51°20.494 2°40.925 8.7388 3.417782 30.761094 -2.871232
2007-04-04 07:33:40 51°20.501 2°40.894 8.7409 3.417989 30.76234 -2.871232
2007-04-04 07:33:45 51°20.507 2°40.863 8.734 3.418299 30.764619 -2.871232
2007-04-04 07:33:50 51°20.513 2°40.832 8.7339 3.418506 30.765043 -2.871232
2007-04-04 07:33:55 51°20.519 2°40.801 8.7341 3.418817 30.768144 -2.871232
2007-04-04 07:34:00 51°20.525 2°40.77 8.7327 3.419024 30.770211 -2.871232
2007-04-04 07:34:05 51°20.531 2°40.738 8.7339 3.419024 30.770211 -2.871232
2007-04-04 07:34:10 51°20.537 2°40.708 8.7296 3.419231 30.7731 -2.871232
2007-04-04 07:34:15 51°20.544 2°40.677 8.7306 3.419231 30.773922 -2.871232
2007-04-04 07:34:20 51°20.55 2°40.646 8.7287 3.419231 30.776387 -2.871232
2007-04-04 07:34:25 51°20.555 2°40.615 8.7284 3.419231 30.77803 -2.871232
2007-04-04 07:34:30 51°20.561 2°40.584 8.7296 3.419231 30.778852 -2.871232
2007-04-04 07:34:35 51°20.567 2°40.553 8.7323 3.419231 30.778852 -2.871232
2007-04-04 07:34:40 51°20.573 2°40.522 8.7248 3.419231 30.779674 -2.871232
2007-04-04 07:34:45 51°20.578 2°40.491 8.7244 3.419438 30.783386 -2.871232
2007-04-04 07:34:50 51°20.585 2°40.46 8.7478 3.419645 30.787098 -2.871232
2007-04-04 07:34:55 51°20.589 2°40.428 8.7252 3.419956 30.7902 -2.871232
2007-04-04 07:35:00 51°20.596 2°40.398 8.728 3.42037 30.794336 -2.871232
2007-04-04 07:35:05 51°20.601 2°40.366 8.7225 3.42037 30.794336 -2.871232
2007-04-04 07:35:10 51°20.607 2°40.335 8.7235 3.420784 30.798472 -2.871232
2007-04-04 07:35:15 51°20.614 2°40.306 8.7232 3.421095 30.80322 -2.871232
2007-04-04 07:35:20 51°20.618 2°40.274 8.7216 3.421302 30.803643 -2.871232
2007-04-04 07:35:25 51°20.625 2°40.243 8.7202 3.421613 30.805922 -2.871232
2007-04-04 07:35:30 51°20.631 2°40.212 8.721 3.421923 30.81067 -2.871232
2007-04-04 07:35:35 51°20.639 2°40.183 8.7276 3.421923 30.81067 -2.871232
2007-04-04 07:35:40 51°20.646 2°40.153 8.7292 3.422338 30.816453 -2.871232
2007-04-04 07:35:45 51°20.658 2°40.127 8.7308 3.422338 30.818099 -2.871232
2007-04-04 07:35:50 51°20.667 2°40.1 8.7278 3.422441 30.819956 -2.871232
2007-04-04 07:35:55 51°20.679 2°40.075 8.7253 3.422752 30.823883 -2.871232
2007-04-04 07:36:00 51°20.691 2°40.05 8.7241 3.423891 30.834437 -2.871232
2007-04-04 07:36:05 51°20.704 2°40.027 8.7368 3.423891 30.834437 -2.871232
2007-04-04 07:36:10 51°20.717 2°40.005 8.7281 3.424926 30.841485 -2.871232
2007-04-04 07:36:15 51°20.731 2°39.985 8.7221 3.426169 30.852249 -2.871232
2007-04-04 07:36:20 51°20.746 2°39.965 8.7253 3.42679 30.856806 -2.871232
2007-04-04 07:36:25 51°20.76 2°39.947 8.7183 3.427204 30.860943 -2.871232
2007-04-04 07:36:30 51°20.774 2°39.927 8.7221 3.427411 30.863012 -2.871232
2007-04-04 07:36:35 51°20.79 2°39.911 8.7181 3.427411 30.863012 -2.871232
2007-04-04 07:36:40 51°20.805 2°39.896 8.7149 3.427618 30.865081 -2.871232
2007-04-04 07:36:45 51°20.821 2°39.882 8.7168 3.427929 30.868183 -2.871232
2007-04-04 07:36:50 51°20.838 2°39.871 8.717 3.42855 30.877688 -2.871232
2007-04-04 07:36:55 51°20.854 2°39.863 8.7172 3.429068 30.885335 -2.871232
2007-04-04 07:37:00 51°20.871 2°39.855 8.7187 3.429275 30.88823 -2.871232
2007-04-04 07:37:05 51°20.889 2°39.85 8.7142 3.429275 30.88823 -2.871232
2007-04-04 07:37:10 51°20.906 2°39.845 8.7149 3.429482 30.891124 -2.871232
2007-04-04 07:37:15 51°20.923 2°39.843 8.7208 3.429897 30.896088 -2.871232
2007-04-04 07:37:20 51°20.94 2°39.842 8.7143 3.430311 30.900227 -2.871232
2007-04-04 07:37:25 51°20.956 2°39.841 8.712 3.430932 30.907261 -2.871232
2007-04-04 07:37:30 51°20.972 2°39.842 8.7107 3.431346 30.912226 -2.871232
2007-04-04 07:37:35 51°20.989 2°39.843 8.7099 3.431346 30.912226 -2.871232
2007-04-04 07:37:40 51°21.005 2°39.845 8.7093 3.431553 30.915121 -2.871232
2007-04-04 07:37:45 51°21.022 2°39.846 8.714 3.431553 30.915947 -2.871232
2007-04-04 07:37:50 51°21.038 2°39.848 8.7082 3.431657 30.916156 -2.871232
2007-04-04 07:37:55 51°21.054 2°39.849 8.7066 3.431968 30.921739 -2.871232
2007-04-04 07:38:00 51°21.071 2°39.851 8.7083 3.432278 30.927323 -2.871232
2007-04-04 07:38:05 51°21.087 2°39.853 8.709 3.432278 30.927323 -2.871232
2007-04-04 07:38:10 51°21.103 2°39.855 8.7057 3.4329 30.93436 -2.871232
2007-04-04 07:38:15 51°21.119 2°39.857 8.7024 3.433521 30.941398 -2.871232
2007-04-04 07:38:20 51°21.134 2°39.858 8.7022 3.434246 30.948644 -2.871232
2007-04-04 07:38:25 51°21.15 2°39.859 8.7037 3.434763 30.955475 -2.871232
2007-04-04 07:38:30 51°21.164 2°39.859 8.7054 3.435178 30.960444 -2.871232
2007-04-04 07:38:35 51°21.179 2°39.859 8.7103 3.435178 30.960444 -2.871232
2007-04-04 07:38:40 51°21.193 2°39.86 8.7125 3.435385 30.963342 -2.871232
2007-04-04 07:38:45 51°21.208 2°39.86 8.7159 3.435488 30.965205 -2.871232
2007-04-04 07:38:50 51°21.224 2°39.861 8.716 3.435695 30.968931 -2.871232
2007-04-04 07:38:55 51°21.24 2°39.861 8.7213 3.437974 30.992541 -2.871232
2007-04-04 07:39:00 51°21.256 2°39.861 8.7247 3.441701 31.028997 -2.871232
2007-04-04 07:39:05 51°21.272 2°39.861 8.7252 3.441701 31.028997 -2.871232
2007-04-04 07:39:10 51°21.289 2°39.861 8.7292 3.44574 31.066905 -2.871232
2007-04-04 07:39:15 51°21.305 2°39.862 8.731 3.450192 31.109789 -2.871232
2007-04-04 07:39:20 51°21.321 2°39.863 8.7323 3.454542 31.151642 -2.871232
2007-04-04 07:39:25 51°21.337 2°39.863 8.7358 3.458684 31.190593 -2.871232
2007-04-04 07:39:30 51°21.353 2°39.862 8.7344 3.46148 31.215238 -2.871232
2007-04-04 07:39:35 51°21.369 2°39.861 8.737 3.46148 31.215238 -2.871232
2007-04-04 07:39:40 51°21.386 2°39.86 8.7386 3.464379 31.241753 -2.871232
2007-04-04 07:39:45 51°21.402 2°39.86 8.7391 3.467382 31.268469 -2.871232
2007-04-04 07:39:50 51°21.419 2°39.859 8.7381 3.470385 31.296018 -2.871232
2007-04-04 07:39:55 51°21.436 2°39.858 8.7387 3.47256 31.315276 -2.871232
2007-04-04 07:40:00 51°21.452 2°39.857 8.7392 3.474217 31.330187 -2.871232
2007-04-04 07:40:05 51°21.469 2°39.856 8.7379 3.474217 31.330187 -2.871232
2007-04-04 07:40:10 51°21.486 2°39.856 8.7368 3.475149 31.338679 -2.871232
2007-04-04 07:40:15 51°21.503 2°39.856 8.7404 3.476184 31.34737 -2.871232
2007-04-04 07:40:20 51°21.519 2°39.856 8.7412 3.476806 31.352752 -2.871232
2007-04-04 07:40:25 51°21.536 2°39.856 8.741 3.477427 31.358971 -2.871232
2007-04-04 07:40:30 51°21.553 2°39.857 8.7412 3.477945 31.363316 -2.871232
2007-04-04 07:40:35 51°21.57 2°39.856 8.7401 3.477945 31.363316 -2.871232
2007-04-04 07:40:40 51°21.587 2°39.856 8.7424 3.478463 31.368499 -2.871232
2007-04-04 07:40:45 51°21.603 2°39.855 8.7404 3.478877 31.372645 -2.871232
2007-04-04 07:40:50 51°21.618 2°39.855 8.7371 3.479187 31.374079 -2.871232
2007-04-04 07:40:55 51°21.634 2°39.855 8.7382 3.479602 31.377388 -2.871232
2007-04-04 07:41:00 51°21.65 2°39.854 8.7387 3.480119 31.382571 -2.871232
2007-04-04 07:41:05 51°21.666 2°39.853 8.7376 3.480119 31.382571 -2.871232
2007-04-04 07:41:10 51°21.681 2°39.851 8.7334 3.480637 31.387753 -2.871232
2007-04-04 07:41:15 51°21.696 2°39.85 8.7311 3.481155 31.392937 -2.871232
2007-04-04 07:41:20 51°21.712 2°39.849 8.7281 3.481569 31.397922 -2.871232
2007-04-04 07:41:25 51°21.728 2°39.848 8.7307 3.481984 31.402907 -2.871232
2007-04-04 07:41:30 51°21.744 2°39.846 8.7297 3.482087 31.404783 -2.871232
2007-04-04 07:41:35 51°21.761 2°39.845 8.7279 3.482087 31.404783 -2.871232
2007-04-04 07:41:40 51°21.777 2°39.844 8.7285 3.482191 31.405819 -2.871232
2007-04-04 07:41:45 51°21.795 2°39.843 8.726 3.482294 31.409373 -2.871232
2007-04-04 07:41:50 51°21.811 2°39.843 8.7286 3.482709 31.416038 -2.871232
2007-04-04 07:41:55 51°21.827 2°39.841 8.7263 3.483019 31.419988 -2.871232
2007-04-04 07:42:00 51°21.843 2°39.84 8.7242 3.48333 31.423099 -2.871232
2007-04-04 07:42:05 51°21.859 2°39.84 8.7256 3.48333 31.423099 -2.871232
2007-04-04 07:42:10 51°21.875 2°39.838 8.7243 3.48333 31.424778 -2.871232
2007-04-04 07:42:15 51°21.892 2°39.837 8.7229 3.483123 31.422704 -2.871232
2007-04-04 07:42:20 51°21.907 2°39.835 8.7222 3.482916 31.42063 -2.871232
2007-04-04 07:42:25 51°21.923 2°39.835 8.7208 3.482709 31.419395 -2.871232
2007-04-04 07:42:30 51°21.939 2°39.833 8.7234 3.482605 31.419197 -2.871232
2007-04-04 07:42:35 51°21.956 2°39.832 8.7193 3.482605 31.419197 -2.871232
2007-04-04 07:42:40 51°21.973 2°39.831 8.7166 3.482605 31.420037 -2.871232
2007-04-04 07:42:45 51°21.989 2°39.83 8.7154 3.482812 31.422951 -2.871232
2007-04-04 07:42:50 51°22.005 2°39.829 8.718 3.482916 31.424827 -2.871232
2007-04-04 07:42:55 51°22.021 2°39.828 8.7156 3.483019 31.426704 -2.871232
2007-04-04 07:43:00 51°22.038 2°39.826 8.7158 3.483019 31.425865 -2.871232
2007-04-04 07:43:05 51°22.053 2°39.825 8.7122 3.483019 31.425865 -2.871232
2007-04-04 07:43:10 51°22.069 2°39.824 8.7136 3.483226 31.428779 -2.871232
2007-04-04 07:43:15 51°22.084 2°39.822 8.717 3.483434 31.433373 -2.871232
2007-04-04 07:43:20 51°22.101 2°39.821 8.7149 3.483641 31.436288 -2.871232
2007-04-04 07:43:25 51°22.117 2°39.819 8.717 3.483848 31.438362 -2.871232
2007-04-04 07:43:30 51°22.133 2°39.819 8.7136 3.484159 31.443155 -2.871232
2007-04-04 07:43:35 51°22.149 2°39.816 8.7146 3.484159 31.443155 -2.871232
2007-04-04 07:43:40 51°22.165 2°39.814 8.721 3.484676 31.449183 -2.871232
2007-04-04 07:43:45 51°22.18 2°39.813 8.718 3.484987 31.453136 -2.871232
2007-04-04 07:43:50 51°22.196 2°39.81 8.7171 3.485298 31.455408 -2.871232
2007-04-04 07:43:55 51°22.212 2°39.808 8.7184 3.485815 31.459755 -2.871232
2007-04-04 07:44:00 51°22.228 2°39.801 8.7171 3.48623 31.464746 -2.871232
2007-04-04 07:44:05 51°22.245 2°39.793 8.7152 3.48623 31.464746 -2.871232
2007-04-04 07:44:10 51°22.26 2°39.784 8.7159 3.486851 31.470131 -2.871232
2007-04-04 07:44:15 51°22.275 2°39.77 8.718 3.487472 31.476356 -2.871232
2007-04-04 07:44:20 51°22.29 2°39.755 8.7174 3.488301 31.484657 -2.871232
2007-04-04 07:44:25 51°22.305 2°39.74 8.7193 3.489129 31.4938 -2.871232
2007-04-04 07:44:30 51°22.319 2°39.724 8.7196 3.489854 31.501906 -2.871232
2007-04-04 07:44:35 51°22.332 2°39.704 8.7241 3.489854 31.501906 -2.871232
2007-04-04 07:44:40 51°22.344 2°39.683 8.7261 3.490372 31.507938 -2.871232
2007-04-04 07:44:45 51°22.356 2°39.66 8.73 3.490786 31.512089 -2.871232
2007-04-04 07:44:50 51°22.368 2°39.638 8.733 3.490994 31.513322 -2.871232
2007-04-04 07:44:55 51°22.378 2°39.613 8.7368 3.491304 31.515594 -2.871232
2007-04-04 07:45:00 51°22.387 2°39.585 8.7363 3.492236 31.524934 -2.871232
2007-04-04 07:45:05 51°22.396 2°39.558 8.7368 3.492236 31.524934 -2.871232
2007-04-04 07:45:10 51°22.404 2°39.528 8.7362 3.493582 31.535899 -2.871232
2007-04-04 07:45:15 51°22.409 2°39.498 8.7397 3.495136 31.548095 -2.871232
2007-04-04 07:45:20 51°22.415 2°39.468 8.74 3.496275 31.556981 -2.871232
2007-04-04 07:45:25 51°22.42 2°39.437 8.7391 3.497311 31.565672 -2.871232
2007-04-04 07:45:30 51°22.423 2°39.406 8.7385 3.498346 31.57352 -2.871232
2007-04-04 07:45:35 51°22.426 2°39.374 8.7395 3.498346 31.57352 -2.871232
2007-04-04 07:45:40 51°22.428 2°39.341 8.7419 3.498968 31.577215 -2.871232
2007-04-04 07:45:45 51°22.43 2°39.309 8.7419 3.499278 31.579485 -2.871232
2007-04-04 07:45:50 51°22.432 2°39.276 8.7458 3.499796 31.58383 -2.871232
2007-04-04 07:45:55 51°22.434 2°39.244 8.7464 3.50021 31.58798 -2.871232
2007-04-04 07:46:00 51°22.436 2°39.212 8.7502 3.500625 31.592131 -2.871232
2007-04-04 07:46:05 51°22.438 2°39.18 8.747 3.500625 31.592131 -2.871232
2007-04-04 07:46:10 51°22.443 2°39.149 8.7453 3.501349 31.597707 -2.871232
2007-04-04 07:46:15 51°22.445 2°39.117 8.7483 3.501971 31.603089 -2.871232
2007-04-04 07:46:20 51°22.451 2°39.086 8.7563 3.502696 31.608665 -2.871232
2007-04-04 07:46:25 51°22.452 2°39.053 8.7528 3.503214 31.61132 -2.871232
2007-04-04 07:46:30 51°22.458 2°39.022 8.7585 3.503731 31.61482 -2.871232
2007-04-04 07:46:35 51°22.462 2°38.991 8.7502 3.503731 31.61482 -2.871232
2007-04-04 07:46:40 51°22.466 2°38.959 8.7523 3.504249 31.618319 -2.871232
2007-04-04 07:46:45 51°22.471 2°38.928 8.7496 3.504767 31.622662 -2.871232
2007-04-04 07:46:50 51°22.474 2°38.896 8.748 3.505181 31.625124 -2.871232
2007-04-04 07:46:55 51°22.479 2°38.864 8.7519 3.505699 31.627778 -2.871232
2007-04-04 07:47:00 51°22.483 2°38.833 8.7497 3.506113 31.631928 -2.871232
2007-04-04 07:47:05 51°22.487 2°38.8 8.7605 3.506113 31.631928 -2.871232
2007-04-04 07:47:10 51°22.492 2°38.769 8.7534 3.506528 31.636078 -2.871232
2007-04-04 07:47:15 51°22.494 2°38.736 8.7483 3.506631 31.637115 -2.871232
2007-04-04 07:47:20 51°22.502 2°38.706 8.7484 3.506838 31.63919 -2.871232
2007-04-04 07:47:25 51°22.505 2°38.674 8.745 3.507045 31.64211 -2.871232
2007-04-04 07:47:30 51°22.51 2°38.642 8.7452 3.507149 31.641458 -2.871232
2007-04-04 07:47:35 51°22.518 2°38.612 8.7471 3.507149 31.641458 -2.871232
2007-04-04 07:47:40 51°22.523 2°38.58 8.7466 3.507045 31.638731 -2.871232
2007-04-04 07:47:45 51°22.53 2°38.55 8.7501 3.506838 31.637501 -2.871232
2007-04-04 07:47:50 51°22.535 2°38.518 8.7455 3.506424 31.63504 -2.871232
2007-04-04 07:47:55 51°22.542 2°38.488 8.7491 3.506113 31.633617 -2.871232
2007-04-04 07:48:00 51°22.548 2°38.457 8.7464 3.505803 31.630504 -2.871232
2007-04-04 07:48:05 51°22.555 2°38.426 8.7504 3.505803 31.630504 -2.871232
2007-04-04 07:48:10 51°22.562 2°38.397 8.7463 3.505699 31.629467 -2.871232
2007-04-04 07:48:15 51°22.567 2°38.365 8.7498 3.505803 31.632194 -2.871232
2007-04-04 07:48:20 51°22.577 2°38.336 8.7597 3.505803 31.631349 -2.871232
2007-04-04 07:48:25 51°22.583 2°38.305 8.7467 3.505906 31.633231 -2.871232
2007-04-04 07:48:30 51°22.592 2°38.276 8.7553 3.505906 31.633231 -2.871232
2007-04-04 07:48:35 51°22.598 2°38.244 8.7502 3.505906 31.633231 -2.871232
2007-04-04 07:48:40 51°22.607 2°38.216 8.7515 3.505803 31.633038 -2.871232
2007-04-04 07:48:45 51°22.615 2°38.188 8.7456 3.505803 31.632194 -2.871232
2007-04-04 07:48:50 51°22.623 2°38.158 8.7484 3.505803 31.630504 -2.871232
2007-04-04 07:48:55 51°22.631 2°38.128 8.742 3.505803 31.62966 -2.871232
2007-04-04 07:49:00 51°22.639 2°38.099 8.7427 3.505803 31.62966 -2.871232
2007-04-04 07:49:05 51°22.647 2°38.07 8.745 3.505803 31.62966 -2.871232
2007-04-04 07:49:10 51°22.655 2°38.039 8.7438 3.505803 31.628815 -2.871232
2007-04-04 07:49:15 51°22.663 2°38.009 8.7452 3.505906 31.630697 -2.871232
2007-04-04 07:49:20 51°22.672 2°37.98 8.7426 3.505906 31.633231 -2.871232
2007-04-04 07:49:25 51°22.678 2°37.949 8.7456 3.50601 31.635113 -2.871232
2007-04-04 07:49:30 51°22.687 2°37.921 8.747 3.506113 31.637841 -2.871232
2007-04-04 07:49:35 51°22.694 2°37.89 8.749 3.506113 31.637841 -2.871232
2007-04-04 07:49:40 51°22.704 2°37.863 8.747 3.506113 31.638686 -2.871232
2007-04-04 07:49:45 51°22.71 2°37.832 8.7441 3.50632 31.640761 -2.871232
2007-04-04 07:49:50 51°22.72 2°37.803 8.7526 3.506424 31.642644 -2.871232
2007-04-04 07:49:55 51°22.728 2°37.773 8.7393 3.506735 31.644912 -2.871232
2007-04-04 07:50:00 51°22.736 2°37.744 8.7394 3.506942 31.645297 -2.871232
2007-04-04 07:50:05 51°22.743 2°37.713 8.7428 3.506942 31.645297 -2.871232
2007-04-04 07:50:10 51°22.752 2°37.684 8.7384 3.507253 31.647565 -2.871232
2007-04-04 07:50:15 51°22.759 2°37.654 8.7399 3.507563 31.651523 -2.871232
2007-04-04 07:50:20 51°22.768 2°37.625 8.7466 3.50777 31.653599 -2.871232
2007-04-04 07:50:25 51°22.777 2°37.598 8.7432 3.508081 31.656712 -2.871232
2007-04-04 07:50:30 51°22.784 2°37.567 8.7418 3.508392 31.663207 -2.871232
2007-04-04 07:50:35 51°22.794 2°37.541 8.7463 3.508392 31.663207 -2.871232
2007-04-04 07:50:40 51°22.8 2°37.51 8.7433 3.50891 31.668397 -2.871232
2007-04-04 07:50:45 51°22.81 2°37.483 8.7483 3.509427 31.674432 -2.871232
2007-04-04 07:50:50 51°22.816 2°37.452 8.7415 3.510256 31.681044 -2.871232
2007-04-04 07:50:55 51°22.826 2°37.425 8.7502 3.511292 31.691423 -2.871232
2007-04-04 07:51:00 51°22.831 2°37.394 8.7463 3.51212 31.699727 -2.871232
2007-04-04 07:51:05 51°22.839 2°37.365 8.745 3.51212 31.699727 -2.871232
2007-04-04 07:51:10 51°22.846 2°37.335 8.7395 3.512949 31.707185 -2.871232
2007-04-04 07:51:15 51°22.854 2°37.306 8.7386 3.513881 31.716527 -2.871232
2007-04-04 07:51:20 51°22.861 2°37.276 8.7381 3.514606 31.722946 -2.871232
2007-04-04 07:51:25 51°22.869 2°37.247 8.7501 3.514813 31.725023 -2.871232
2007-04-04 07:51:30 51°22.876 2°37.217 8.7382 3.515124 31.72729 -2.871232
2007-04-04 07:51:35 51°22.883 2°37.189 8.7404 3.515124 31.72729 -2.871232
2007-04-04 07:51:40 51°22.89 2°37.159 8.7416 3.515331 31.729366 -2.871232
2007-04-04 07:51:45 51°22.899 2°37.13 8.7501 3.515745 31.736061 -2.871232
2007-04-04 07:51:50 51°22.906 2°37.101 8.7429 3.516159 31.741909 -2.871232
2007-04-04 07:51:55 51°22.914 2°37.072 8.7417 3.51647 31.745024 -2.871232
2007-04-04 07:52:00 51°22.921 2°37.042 8.7442 3.516988 31.750215 -2.871232
2007-04-04 07:52:05 51°22.931 2°37.014 8.7436 3.516988 31.750215 -2.871232
2007-04-04 07:52:10 51°22.935 2°36.982 8.744 3.517506 31.756255 -2.871232
2007-04-04 07:52:15 51°22.946 2°36.956 8.7509 3.518127 31.761637 -2.871232
2007-04-04 07:52:20 51°22.951 2°36.925 8.7426 3.518748 31.767867 -2.871232
2007-04-04 07:52:25 51°22.96 2°36.896 8.7424 3.519473 31.775985 -2.871232
2007-04-04 07:52:30 51°22.968 2°36.868 8.7437 3.519991 31.780328 -2.871232
2007-04-04 07:52:35 51°22.974 2°36.837 8.7428 3.519991 31.780328 -2.871232
2007-04-04 07:52:40 51°22.983 2°36.809 8.7446 3.520406 31.782784 -2.871232
2007-04-04 07:52:45 51°22.989 2°36.778 8.7417 3.52082 31.78524 -2.871232
2007-04-04 07:52:50 51°22.998 2°36.75 8.7504 3.521338 31.789583 -2.871232
2007-04-04 07:52:55 51°23.003 2°36.717 8.7492 3.521959 31.796663 -2.871232
2007-04-04 07:53:00 51°23.014 2°36.691 8.7544 3.522477 31.802704 -2.871232
2007-04-04 07:53:05 51°23.02 2°36.659 8.7491 3.522477 31.802704 -2.871232
2007-04-04 07:53:10 51°23.029 2°36.633 8.7491 3.522995 31.807047 -2.871232
2007-04-04 07:53:15 51°23.035 2°36.602 8.7557 3.523513 31.810541 -2.871232